<?xml version="1.0" encoding="UTF-8" standalone="no" ?>
<gpx xmlns="http://www.topografix.com/GPX/1/1" xmlns:xsi="http://www.w3.org/2001/XMLSchema-instance" xsi:schemaLocation="http://www.topografix.com/GPX/1/1 http://www.topografix.com/GPX/1/1/gpx.xsd" version="1.1" creator="VisuGPX - https://www.visugpx.com">
  <metadata>
    <name>Le Koenigsstuhl</name>
    <desc><![CDATA[Trace AlpineQuest 12/08/2014 14:14:39]]></desc>
  </metadata>
  <trk>
    <name><![CDATA[Le Koenigsstuhl_1]]></name>
    <trkseg>
      <trkpt lat="48.17864" lon="7.2559">
        <ele>654</ele>
        <time>2014-08-12T12:14:39Z</time>
      </trkpt>
      <trkpt lat="48.17867" lon="7.25591">
        <ele>654</ele>
        <time>2014-08-12T12:15:45Z</time>
      </trkpt>
      <trkpt lat="48.17873" lon="7.25593">
        <ele>655</ele>
        <time>2014-08-12T12:15:55Z</time>
      </trkpt>
      <trkpt lat="48.17887" lon="7.25603">
        <ele>658</ele>
        <time>2014-08-12T12:16:05Z</time>
      </trkpt>
      <trkpt lat="48.17889" lon="7.25604">
        <ele>658</ele>
        <time>2014-08-12T12:16:07Z</time>
      </trkpt>
      <trkpt lat="48.17895" lon="7.25608">
        <ele>658</ele>
        <time>2014-08-12T12:16:13Z</time>
      </trkpt>
      <trkpt lat="48.17899" lon="7.25615">
        <ele>658</ele>
        <time>2014-08-12T12:16:35Z</time>
      </trkpt>
      <trkpt lat="48.17923" lon="7.2562">
        <ele>673</ele>
        <time>2014-08-12T12:16:46Z</time>
      </trkpt>
      <trkpt lat="48.17935" lon="7.2563">
        <ele>674</ele>
        <time>2014-08-12T12:16:54Z</time>
      </trkpt>
      <trkpt lat="48.17937" lon="7.25634">
        <ele>674</ele>
        <time>2014-08-12T12:16:55Z</time>
      </trkpt>
      <trkpt lat="48.17939" lon="7.25637">
        <ele>673</ele>
        <time>2014-08-12T12:16:56Z</time>
      </trkpt>
      <trkpt lat="48.17941" lon="7.25641">
        <ele>673</ele>
        <time>2014-08-12T12:16:57Z</time>
      </trkpt>
      <trkpt lat="48.17945" lon="7.25647">
        <ele>673</ele>
        <time>2014-08-12T12:16:59Z</time>
      </trkpt>
      <trkpt lat="48.1796" lon="7.25673">
        <ele>670</ele>
        <time>2014-08-12T12:17:10Z</time>
      </trkpt>
      <trkpt lat="48.17968" lon="7.25691">
        <ele>670</ele>
        <time>2014-08-12T12:17:20Z</time>
      </trkpt>
      <trkpt lat="48.17981" lon="7.25693">
        <ele>672</ele>
        <time>2014-08-12T12:17:30Z</time>
      </trkpt>
      <trkpt lat="48.17993" lon="7.257">
        <ele>673</ele>
        <time>2014-08-12T12:17:41Z</time>
      </trkpt>
      <trkpt lat="48.17994" lon="7.25705">
        <ele>672</ele>
        <time>2014-08-12T12:17:43Z</time>
      </trkpt>
      <trkpt lat="48.17997" lon="7.25709">
        <ele>672</ele>
        <time>2014-08-12T12:17:45Z</time>
      </trkpt>
      <trkpt lat="48.18004" lon="7.25729">
        <ele>682</ele>
        <time>2014-08-12T12:17:55Z</time>
      </trkpt>
      <trkpt lat="48.18006" lon="7.25733">
        <ele>682</ele>
        <time>2014-08-12T12:17:58Z</time>
      </trkpt>
      <trkpt lat="48.18017" lon="7.25744">
        <ele>682</ele>
        <time>2014-08-12T12:18:09Z</time>
      </trkpt>
      <trkpt lat="48.18026" lon="7.25756">
        <ele>681</ele>
        <time>2014-08-12T12:18:20Z</time>
      </trkpt>
      <trkpt lat="48.18029" lon="7.25764">
        <ele>682</ele>
        <time>2014-08-12T12:18:30Z</time>
      </trkpt>
      <trkpt lat="48.18039" lon="7.25774">
        <ele>683</ele>
        <time>2014-08-12T12:18:40Z</time>
      </trkpt>
      <trkpt lat="48.18041" lon="7.25777">
        <ele>683</ele>
        <time>2014-08-12T12:18:42Z</time>
      </trkpt>
      <trkpt lat="48.1805" lon="7.25787">
        <ele>684</ele>
        <time>2014-08-12T12:18:50Z</time>
      </trkpt>
      <trkpt lat="48.18063" lon="7.2579">
        <ele>685</ele>
        <time>2014-08-12T12:19:02Z</time>
      </trkpt>
      <trkpt lat="48.18065" lon="7.25793">
        <ele>685</ele>
        <time>2014-08-12T12:19:04Z</time>
      </trkpt>
      <trkpt lat="48.18076" lon="7.25804">
        <ele>686</ele>
        <time>2014-08-12T12:19:15Z</time>
      </trkpt>
      <trkpt lat="48.18085" lon="7.25816">
        <ele>692</ele>
        <time>2014-08-12T12:19:24Z</time>
      </trkpt>
      <trkpt lat="48.18091" lon="7.25823">
        <ele>692</ele>
        <time>2014-08-12T12:19:29Z</time>
      </trkpt>
      <trkpt lat="48.18102" lon="7.25836">
        <ele>692</ele>
        <time>2014-08-12T12:19:41Z</time>
      </trkpt>
      <trkpt lat="48.18104" lon="7.25839">
        <ele>692</ele>
        <time>2014-08-12T12:19:43Z</time>
      </trkpt>
      <trkpt lat="48.18106" lon="7.25843">
        <ele>692</ele>
        <time>2014-08-12T12:19:45Z</time>
      </trkpt>
      <trkpt lat="48.18114" lon="7.25856">
        <ele>693</ele>
        <time>2014-08-12T12:19:55Z</time>
      </trkpt>
      <trkpt lat="48.18116" lon="7.2586">
        <ele>693</ele>
        <time>2014-08-12T12:19:58Z</time>
      </trkpt>
      <trkpt lat="48.1813" lon="7.25861">
        <ele>694</ele>
        <time>2014-08-12T12:20:08Z</time>
      </trkpt>
      <trkpt lat="48.18138" lon="7.25869">
        <ele>694</ele>
        <time>2014-08-12T12:20:19Z</time>
      </trkpt>
      <trkpt lat="48.18149" lon="7.25869">
        <ele>694</ele>
        <time>2014-08-12T12:20:29Z</time>
      </trkpt>
      <trkpt lat="48.1816" lon="7.25858">
        <ele>695</ele>
        <time>2014-08-12T12:20:39Z</time>
      </trkpt>
      <trkpt lat="48.18169" lon="7.25849">
        <ele>699</ele>
        <time>2014-08-12T12:20:46Z</time>
      </trkpt>
      <trkpt lat="48.18182" lon="7.25835">
        <ele>699</ele>
        <time>2014-08-12T12:20:57Z</time>
      </trkpt>
      <trkpt lat="48.18185" lon="7.25833">
        <ele>703</ele>
        <time>2014-08-12T12:20:59Z</time>
      </trkpt>
      <trkpt lat="48.18198" lon="7.25833">
        <ele>704</ele>
        <time>2014-08-12T12:21:11Z</time>
      </trkpt>
      <trkpt lat="48.1821" lon="7.25839">
        <ele>700</ele>
        <time>2014-08-12T12:21:24Z</time>
      </trkpt>
      <trkpt lat="48.18216" lon="7.25836">
        <ele>700</ele>
        <time>2014-08-12T12:21:42Z</time>
      </trkpt>
      <trkpt lat="48.18236" lon="7.2584">
        <ele>702</ele>
        <time>2014-08-12T12:21:53Z</time>
      </trkpt>
      <trkpt lat="48.1824" lon="7.25839">
        <ele>703</ele>
        <time>2014-08-12T12:21:55Z</time>
      </trkpt>
      <trkpt lat="48.18243" lon="7.25838">
        <ele>703</ele>
        <time>2014-08-12T12:21:57Z</time>
      </trkpt>
      <trkpt lat="48.18253" lon="7.25834">
        <ele>704</ele>
        <time>2014-08-12T12:22:08Z</time>
      </trkpt>
      <trkpt lat="48.18257" lon="7.25832">
        <ele>706</ele>
        <time>2014-08-12T12:22:10Z</time>
      </trkpt>
      <trkpt lat="48.18276" lon="7.25829">
        <ele>708</ele>
        <time>2014-08-12T12:22:19Z</time>
      </trkpt>
      <trkpt lat="48.18284" lon="7.25828">
        <ele>708</ele>
        <time>2014-08-12T12:22:24Z</time>
      </trkpt>
      <trkpt lat="48.183" lon="7.25824">
        <ele>708</ele>
        <time>2014-08-12T12:22:34Z</time>
      </trkpt>
      <trkpt lat="48.18312" lon="7.25815">
        <ele>708</ele>
        <time>2014-08-12T12:22:45Z</time>
      </trkpt>
      <trkpt lat="48.18319" lon="7.25813">
        <ele>707</ele>
        <time>2014-08-12T12:22:49Z</time>
      </trkpt>
      <trkpt lat="48.18323" lon="7.25813">
        <ele>707</ele>
        <time>2014-08-12T12:22:51Z</time>
      </trkpt>
      <trkpt lat="48.18329" lon="7.25816">
        <ele>706</ele>
        <time>2014-08-12T12:22:54Z</time>
      </trkpt>
      <trkpt lat="48.18336" lon="7.2582">
        <ele>704</ele>
        <time>2014-08-12T12:22:59Z</time>
      </trkpt>
      <trkpt lat="48.18344" lon="7.2581">
        <ele>705</ele>
        <time>2014-08-12T12:23:10Z</time>
      </trkpt>
      <trkpt lat="48.18361" lon="7.25788">
        <ele>707</ele>
        <time>2014-08-12T12:23:20Z</time>
      </trkpt>
      <trkpt lat="48.18373" lon="7.25781">
        <ele>707</ele>
        <time>2014-08-12T12:23:28Z</time>
      </trkpt>
      <trkpt lat="48.18386" lon="7.2577">
        <ele>708</ele>
        <time>2014-08-12T12:23:38Z</time>
      </trkpt>
      <trkpt lat="48.184" lon="7.25756">
        <ele>709</ele>
        <time>2014-08-12T12:23:50Z</time>
      </trkpt>
      <trkpt lat="48.18413" lon="7.25747">
        <ele>714</ele>
        <time>2014-08-12T12:23:59Z</time>
      </trkpt>
      <trkpt lat="48.18416" lon="7.25744">
        <ele>714</ele>
        <time>2014-08-12T12:24:02Z</time>
      </trkpt>
      <trkpt lat="48.18424" lon="7.2574">
        <ele>712</ele>
        <time>2014-08-12T12:24:15Z</time>
      </trkpt>
      <trkpt lat="48.1843" lon="7.25735">
        <ele>712</ele>
        <time>2014-08-12T12:24:21Z</time>
      </trkpt>
      <trkpt lat="48.18443" lon="7.25714">
        <ele>712</ele>
        <time>2014-08-12T12:24:32Z</time>
      </trkpt>
      <trkpt lat="48.18445" lon="7.2571">
        <ele>713</ele>
        <time>2014-08-12T12:24:34Z</time>
      </trkpt>
      <trkpt lat="48.18448" lon="7.25702">
        <ele>713</ele>
        <time>2014-08-12T12:24:39Z</time>
      </trkpt>
      <trkpt lat="48.18459" lon="7.25688">
        <ele>714</ele>
        <time>2014-08-12T12:24:52Z</time>
      </trkpt>
      <trkpt lat="48.18461" lon="7.25685">
        <ele>714</ele>
        <time>2014-08-12T12:24:54Z</time>
      </trkpt>
      <trkpt lat="48.18467" lon="7.25674">
        <ele>714</ele>
        <time>2014-08-12T12:25:03Z</time>
      </trkpt>
      <trkpt lat="48.18485" lon="7.25656">
        <ele>722</ele>
        <time>2014-08-12T12:25:15Z</time>
      </trkpt>
      <trkpt lat="48.18491" lon="7.25648">
        <ele>722</ele>
        <time>2014-08-12T12:25:19Z</time>
      </trkpt>
      <trkpt lat="48.18495" lon="7.25636">
        <ele>725</ele>
        <time>2014-08-12T12:25:31Z</time>
      </trkpt>
      <trkpt lat="48.18503" lon="7.2562">
        <ele>716</ele>
        <time>2014-08-12T12:25:43Z</time>
      </trkpt>
      <trkpt lat="48.18507" lon="7.25616">
        <ele>716</ele>
        <time>2014-08-12T12:25:45Z</time>
      </trkpt>
      <trkpt lat="48.18518" lon="7.25597">
        <ele>719</ele>
        <time>2014-08-12T12:25:56Z</time>
      </trkpt>
      <trkpt lat="48.18522" lon="7.25595">
        <ele>718</ele>
        <time>2014-08-12T12:25:58Z</time>
      </trkpt>
      <trkpt lat="48.18533" lon="7.25581">
        <ele>728</ele>
        <time>2014-08-12T12:26:09Z</time>
      </trkpt>
      <trkpt lat="48.18528" lon="7.25562">
        <ele>730</ele>
        <time>2014-08-12T12:26:20Z</time>
      </trkpt>
      <trkpt lat="48.18531" lon="7.25559">
        <ele>730</ele>
        <time>2014-08-12T12:26:22Z</time>
      </trkpt>
      <trkpt lat="48.18542" lon="7.25544">
        <ele>730</ele>
        <time>2014-08-12T12:26:33Z</time>
      </trkpt>
      <trkpt lat="48.18541" lon="7.25527">
        <ele>732</ele>
        <time>2014-08-12T12:26:43Z</time>
      </trkpt>
      <trkpt lat="48.18542" lon="7.25522">
        <ele>732</ele>
        <time>2014-08-12T12:26:46Z</time>
      </trkpt>
      <trkpt lat="48.18557" lon="7.25508">
        <ele>730</ele>
        <time>2014-08-12T12:26:56Z</time>
      </trkpt>
      <trkpt lat="48.18562" lon="7.25506">
        <ele>730</ele>
        <time>2014-08-12T12:26:58Z</time>
      </trkpt>
      <trkpt lat="48.18567" lon="7.2549">
        <ele>741</ele>
        <time>2014-08-12T12:27:09Z</time>
      </trkpt>
      <trkpt lat="48.1857" lon="7.25486">
        <ele>741</ele>
        <time>2014-08-12T12:27:12Z</time>
      </trkpt>
      <trkpt lat="48.18579" lon="7.25472">
        <ele>745</ele>
        <time>2014-08-12T12:27:25Z</time>
      </trkpt>
      <trkpt lat="48.18585" lon="7.25456">
        <ele>738</ele>
        <time>2014-08-12T12:27:36Z</time>
      </trkpt>
      <trkpt lat="48.18595" lon="7.25438">
        <ele>743</ele>
        <time>2014-08-12T12:27:47Z</time>
      </trkpt>
      <trkpt lat="48.18597" lon="7.25435">
        <ele>744</ele>
        <time>2014-08-12T12:27:49Z</time>
      </trkpt>
      <trkpt lat="48.18605" lon="7.25419">
        <ele>745</ele>
        <time>2014-08-12T12:28:01Z</time>
      </trkpt>
      <trkpt lat="48.18616" lon="7.25408">
        <ele>761</ele>
        <time>2014-08-12T12:28:11Z</time>
      </trkpt>
      <trkpt lat="48.18618" lon="7.25405">
        <ele>761</ele>
        <time>2014-08-12T12:28:14Z</time>
      </trkpt>
      <trkpt lat="48.18629" lon="7.25393">
        <ele>762</ele>
        <time>2014-08-12T12:28:25Z</time>
      </trkpt>
      <trkpt lat="48.18638" lon="7.25378">
        <ele>764</ele>
        <time>2014-08-12T12:28:37Z</time>
      </trkpt>
      <trkpt lat="48.18661" lon="7.25368">
        <ele>764</ele>
        <time>2014-08-12T12:28:49Z</time>
      </trkpt>
      <trkpt lat="48.1867" lon="7.25366">
        <ele>763</ele>
        <time>2014-08-12T12:28:54Z</time>
      </trkpt>
      <trkpt lat="48.18675" lon="7.25362">
        <ele>764</ele>
        <time>2014-08-12T12:29:06Z</time>
      </trkpt>
      <trkpt lat="48.18691" lon="7.25345">
        <ele>767</ele>
        <time>2014-08-12T12:29:17Z</time>
      </trkpt>
      <trkpt lat="48.18705" lon="7.25337">
        <ele>767</ele>
        <time>2014-08-12T12:29:27Z</time>
      </trkpt>
      <trkpt lat="48.18718" lon="7.25333">
        <ele>769</ele>
        <time>2014-08-12T12:29:37Z</time>
      </trkpt>
      <trkpt lat="48.18727" lon="7.25331">
        <ele>784</ele>
        <time>2014-08-12T12:29:42Z</time>
      </trkpt>
      <trkpt lat="48.18739" lon="7.25347">
        <ele>771</ele>
        <time>2014-08-12T12:29:52Z</time>
      </trkpt>
      <trkpt lat="48.1875" lon="7.25371">
        <ele>776</ele>
        <time>2014-08-12T12:30:01Z</time>
      </trkpt>
      <trkpt lat="48.18753" lon="7.25374">
        <ele>775</ele>
        <time>2014-08-12T12:30:03Z</time>
      </trkpt>
      <trkpt lat="48.1876" lon="7.25373">
        <ele>776</ele>
        <time>2014-08-12T12:30:13Z</time>
      </trkpt>
      <trkpt lat="48.18764" lon="7.25365">
        <ele>778</ele>
        <time>2014-08-12T12:30:35Z</time>
      </trkpt>
      <trkpt lat="48.18764" lon="7.25369">
        <ele>777</ele>
        <time>2014-08-12T12:33:38Z</time>
      </trkpt>
      <trkpt lat="48.1878" lon="7.25386">
        <ele>776</ele>
        <time>2014-08-12T12:33:49Z</time>
      </trkpt>
      <trkpt lat="48.18784" lon="7.25388">
        <ele>777</ele>
        <time>2014-08-12T12:33:51Z</time>
      </trkpt>
      <trkpt lat="48.18788" lon="7.25391">
        <ele>777</ele>
        <time>2014-08-12T12:33:53Z</time>
      </trkpt>
      <trkpt lat="48.18801" lon="7.25403">
        <ele>779</ele>
        <time>2014-08-12T12:34:01Z</time>
      </trkpt>
      <trkpt lat="48.18816" lon="7.25415">
        <ele>781</ele>
        <time>2014-08-12T12:34:11Z</time>
      </trkpt>
      <trkpt lat="48.18823" lon="7.25429">
        <ele>773</ele>
        <time>2014-08-12T12:34:16Z</time>
      </trkpt>
      <trkpt lat="48.18834" lon="7.25443">
        <ele>784</ele>
        <time>2014-08-12T12:34:25Z</time>
      </trkpt>
      <trkpt lat="48.18841" lon="7.25455">
        <ele>783</ele>
        <time>2014-08-12T12:34:31Z</time>
      </trkpt>
      <trkpt lat="48.18851" lon="7.25486">
        <ele>778</ele>
        <time>2014-08-12T12:34:40Z</time>
      </trkpt>
      <trkpt lat="48.18865" lon="7.25493">
        <ele>782</ele>
        <time>2014-08-12T12:34:50Z</time>
      </trkpt>
      <trkpt lat="48.18869" lon="7.25501">
        <ele>773</ele>
        <time>2014-08-12T12:34:56Z</time>
      </trkpt>
      <trkpt lat="48.18878" lon="7.25518">
        <ele>774</ele>
        <time>2014-08-12T12:35:07Z</time>
      </trkpt>
      <trkpt lat="48.18892" lon="7.25521">
        <ele>777</ele>
        <time>2014-08-12T12:35:17Z</time>
      </trkpt>
      <trkpt lat="48.18892" lon="7.25527">
        <ele>776</ele>
        <time>2014-08-12T12:35:19Z</time>
      </trkpt>
      <trkpt lat="48.18899" lon="7.25551">
        <ele>774</ele>
        <time>2014-08-12T12:35:27Z</time>
      </trkpt>
      <trkpt lat="48.18909" lon="7.25574">
        <ele>774</ele>
        <time>2014-08-12T12:35:37Z</time>
      </trkpt>
      <trkpt lat="48.18913" lon="7.25605">
        <ele>769</ele>
        <time>2014-08-12T12:35:46Z</time>
      </trkpt>
      <trkpt lat="48.18916" lon="7.25616">
        <ele>768</ele>
        <time>2014-08-12T12:35:55Z</time>
      </trkpt>
      <trkpt lat="48.18923" lon="7.2563">
        <ele>779</ele>
        <time>2014-08-12T12:36:05Z</time>
      </trkpt>
      <trkpt lat="48.18924" lon="7.25645">
        <ele>778</ele>
        <time>2014-08-12T12:36:12Z</time>
      </trkpt>
      <trkpt lat="48.18926" lon="7.25649">
        <ele>777</ele>
        <time>2014-08-12T12:36:13Z</time>
      </trkpt>
      <trkpt lat="48.18926" lon="7.25654">
        <ele>776</ele>
        <time>2014-08-12T12:36:14Z</time>
      </trkpt>
      <trkpt lat="48.18929" lon="7.25661">
        <ele>776</ele>
        <time>2014-08-12T12:36:24Z</time>
      </trkpt>
      <trkpt lat="48.1893" lon="7.25667">
        <ele>774</ele>
        <time>2014-08-12T12:36:36Z</time>
      </trkpt>
      <trkpt lat="48.18945" lon="7.25706">
        <ele>778</ele>
        <time>2014-08-12T12:36:47Z</time>
      </trkpt>
      <trkpt lat="48.18946" lon="7.25712">
        <ele>778</ele>
        <time>2014-08-12T12:36:50Z</time>
      </trkpt>
      <trkpt lat="48.18956" lon="7.25733">
        <ele>778</ele>
        <time>2014-08-12T12:37:01Z</time>
      </trkpt>
      <trkpt lat="48.18955" lon="7.25737">
        <ele>778</ele>
        <time>2014-08-12T12:37:05Z</time>
      </trkpt>
      <trkpt lat="48.18955" lon="7.25742">
        <ele>778</ele>
        <time>2014-08-12T12:37:10Z</time>
      </trkpt>
      <trkpt lat="48.18962" lon="7.25755">
        <ele>777</ele>
        <time>2014-08-12T12:37:20Z</time>
      </trkpt>
      <trkpt lat="48.18973" lon="7.25768">
        <ele>779</ele>
        <time>2014-08-12T12:37:30Z</time>
      </trkpt>
      <trkpt lat="48.18975" lon="7.25772">
        <ele>779</ele>
        <time>2014-08-12T12:37:32Z</time>
      </trkpt>
      <trkpt lat="48.18984" lon="7.25794">
        <ele>778</ele>
        <time>2014-08-12T12:37:42Z</time>
      </trkpt>
      <trkpt lat="48.18997" lon="7.25811">
        <ele>779</ele>
        <time>2014-08-12T12:37:52Z</time>
      </trkpt>
      <trkpt lat="48.19" lon="7.25812">
        <ele>779</ele>
        <time>2014-08-12T12:37:54Z</time>
      </trkpt>
      <trkpt lat="48.19009" lon="7.25818">
        <ele>784</ele>
        <time>2014-08-12T12:38:04Z</time>
      </trkpt>
      <trkpt lat="48.19026" lon="7.25824">
        <ele>784</ele>
        <time>2014-08-12T12:38:14Z</time>
      </trkpt>
      <trkpt lat="48.19029" lon="7.25826">
        <ele>784</ele>
        <time>2014-08-12T12:38:21Z</time>
      </trkpt>
      <trkpt lat="48.19032" lon="7.25826">
        <ele>784</ele>
        <time>2014-08-12T12:38:26Z</time>
      </trkpt>
      <trkpt lat="48.19041" lon="7.25825">
        <ele>784</ele>
        <time>2014-08-12T12:38:32Z</time>
      </trkpt>
      <trkpt lat="48.19054" lon="7.25822">
        <ele>785</ele>
        <time>2014-08-12T12:38:42Z</time>
      </trkpt>
      <trkpt lat="48.19066" lon="7.2582">
        <ele>785</ele>
        <time>2014-08-12T12:38:54Z</time>
      </trkpt>
      <trkpt lat="48.19084" lon="7.25815">
        <ele>782</ele>
        <time>2014-08-12T12:39:05Z</time>
      </trkpt>
      <trkpt lat="48.19098" lon="7.25811">
        <ele>782</ele>
        <time>2014-08-12T12:39:11Z</time>
      </trkpt>
      <trkpt lat="48.19107" lon="7.25808">
        <ele>781</ele>
        <time>2014-08-12T12:39:16Z</time>
      </trkpt>
      <trkpt lat="48.19113" lon="7.25808">
        <ele>781</ele>
        <time>2014-08-12T12:39:22Z</time>
      </trkpt>
      <trkpt lat="48.19116" lon="7.25807">
        <ele>780</ele>
        <time>2014-08-12T12:39:35Z</time>
      </trkpt>
      <trkpt lat="48.19136" lon="7.25799">
        <ele>779</ele>
        <time>2014-08-12T12:39:45Z</time>
      </trkpt>
      <trkpt lat="48.19152" lon="7.25791">
        <ele>778</ele>
        <time>2014-08-12T12:39:56Z</time>
      </trkpt>
      <trkpt lat="48.19149" lon="7.25788">
        <ele>778</ele>
        <time>2014-08-12T12:40:00Z</time>
      </trkpt>
      <trkpt lat="48.19143" lon="7.25789">
        <ele>779</ele>
        <time>2014-08-12T12:40:10Z</time>
      </trkpt>
      <trkpt lat="48.19141" lon="7.25792">
        <ele>779</ele>
        <time>2014-08-12T12:40:14Z</time>
      </trkpt>
      <trkpt lat="48.19137" lon="7.25804">
        <ele>779</ele>
        <time>2014-08-12T12:40:25Z</time>
      </trkpt>
      <trkpt lat="48.19132" lon="7.25816">
        <ele>779</ele>
        <time>2014-08-12T12:40:34Z</time>
      </trkpt>
      <trkpt lat="48.19126" lon="7.25833">
        <ele>780</ele>
        <time>2014-08-12T12:40:45Z</time>
      </trkpt>
      <trkpt lat="48.19124" lon="7.25857">
        <ele>777</ele>
        <time>2014-08-12T12:40:56Z</time>
      </trkpt>
      <trkpt lat="48.19123" lon="7.25872">
        <ele>777</ele>
        <time>2014-08-12T12:41:02Z</time>
      </trkpt>
      <trkpt lat="48.19123" lon="7.25877">
        <ele>777</ele>
        <time>2014-08-12T12:41:04Z</time>
      </trkpt>
      <trkpt lat="48.19122" lon="7.25886">
        <ele>776</ele>
        <time>2014-08-12T12:41:08Z</time>
      </trkpt>
      <trkpt lat="48.19121" lon="7.25903">
        <ele>776</ele>
        <time>2014-08-12T12:41:19Z</time>
      </trkpt>
      <trkpt lat="48.1912" lon="7.25919">
        <ele>773</ele>
        <time>2014-08-12T12:41:31Z</time>
      </trkpt>
      <trkpt lat="48.19122" lon="7.25939">
        <ele>772</ele>
        <time>2014-08-12T12:41:41Z</time>
      </trkpt>
      <trkpt lat="48.19121" lon="7.25945">
        <ele>772</ele>
        <time>2014-08-12T12:41:43Z</time>
      </trkpt>
      <trkpt lat="48.19119" lon="7.2595">
        <ele>772</ele>
        <time>2014-08-12T12:41:44Z</time>
      </trkpt>
      <trkpt lat="48.19118" lon="7.25956">
        <ele>772</ele>
        <time>2014-08-12T12:41:46Z</time>
      </trkpt>
      <trkpt lat="48.19116" lon="7.25965">
        <ele>772</ele>
        <time>2014-08-12T12:41:52Z</time>
      </trkpt>
      <trkpt lat="48.19116" lon="7.25969">
        <ele>772</ele>
        <time>2014-08-12T12:42:12Z</time>
      </trkpt>
      <trkpt lat="48.19108" lon="7.26014">
        <ele>768</ele>
        <time>2014-08-12T12:42:24Z</time>
      </trkpt>
      <trkpt lat="48.19108" lon="7.26039">
        <ele>766</ele>
        <time>2014-08-12T12:42:35Z</time>
      </trkpt>
      <trkpt lat="48.19108" lon="7.26053">
        <ele>765</ele>
        <time>2014-08-12T12:42:50Z</time>
      </trkpt>
      <trkpt lat="48.19102" lon="7.26101">
        <ele>762</ele>
        <time>2014-08-12T12:43:00Z</time>
      </trkpt>
      <trkpt lat="48.19101" lon="7.26114">
        <ele>761</ele>
        <time>2014-08-12T12:43:02Z</time>
      </trkpt>
      <trkpt lat="48.191" lon="7.26125">
        <ele>760</ele>
        <time>2014-08-12T12:43:05Z</time>
      </trkpt>
      <trkpt lat="48.19107" lon="7.26144">
        <ele>760</ele>
        <time>2014-08-12T12:43:16Z</time>
      </trkpt>
      <trkpt lat="48.19104" lon="7.26168">
        <ele>759</ele>
        <time>2014-08-12T12:43:27Z</time>
      </trkpt>
      <trkpt lat="48.19104" lon="7.26173">
        <ele>759</ele>
        <time>2014-08-12T12:43:33Z</time>
      </trkpt>
      <trkpt lat="48.19104" lon="7.26182">
        <ele>758</ele>
        <time>2014-08-12T12:43:48Z</time>
      </trkpt>
      <trkpt lat="48.19106" lon="7.26187">
        <ele>757</ele>
        <time>2014-08-12T12:43:50Z</time>
      </trkpt>
      <trkpt lat="48.19112" lon="7.26213">
        <ele>755</ele>
        <time>2014-08-12T12:44:00Z</time>
      </trkpt>
      <trkpt lat="48.19108" lon="7.26255">
        <ele>754</ele>
        <time>2014-08-12T12:44:11Z</time>
      </trkpt>
      <trkpt lat="48.191" lon="7.26295">
        <ele>753</ele>
        <time>2014-08-12T12:44:23Z</time>
      </trkpt>
      <trkpt lat="48.191" lon="7.26302">
        <ele>753</ele>
        <time>2014-08-12T12:44:25Z</time>
      </trkpt>
      <trkpt lat="48.19102" lon="7.26305">
        <ele>752</ele>
        <time>2014-08-12T12:44:27Z</time>
      </trkpt>
      <trkpt lat="48.1911" lon="7.2632">
        <ele>752</ele>
        <time>2014-08-12T12:44:39Z</time>
      </trkpt>
      <trkpt lat="48.19114" lon="7.26334">
        <ele>750</ele>
        <time>2014-08-12T12:44:49Z</time>
      </trkpt>
      <trkpt lat="48.19118" lon="7.2635">
        <ele>748</ele>
        <time>2014-08-12T12:45:01Z</time>
      </trkpt>
      <trkpt lat="48.19122" lon="7.26369">
        <ele>747</ele>
        <time>2014-08-12T12:45:13Z</time>
      </trkpt>
      <trkpt lat="48.19119" lon="7.26382">
        <ele>748</ele>
        <time>2014-08-12T12:45:16Z</time>
      </trkpt>
      <trkpt lat="48.19116" lon="7.26412">
        <ele>748</ele>
        <time>2014-08-12T12:45:25Z</time>
      </trkpt>
      <trkpt lat="48.19118" lon="7.26438">
        <ele>749</ele>
        <time>2014-08-12T12:45:35Z</time>
      </trkpt>
      <trkpt lat="48.1912" lon="7.26442">
        <ele>749</ele>
        <time>2014-08-12T12:45:38Z</time>
      </trkpt>
      <trkpt lat="48.19126" lon="7.26456">
        <ele>748</ele>
        <time>2014-08-12T12:45:48Z</time>
      </trkpt>
      <trkpt lat="48.19137" lon="7.26474">
        <ele>747</ele>
        <time>2014-08-12T12:45:58Z</time>
      </trkpt>
      <trkpt lat="48.19146" lon="7.26495">
        <ele>746</ele>
        <time>2014-08-12T12:46:08Z</time>
      </trkpt>
      <trkpt lat="48.19148" lon="7.26498">
        <ele>746</ele>
        <time>2014-08-12T12:46:10Z</time>
      </trkpt>
      <trkpt lat="48.19151" lon="7.26502">
        <ele>745</ele>
        <time>2014-08-12T12:46:13Z</time>
      </trkpt>
      <trkpt lat="48.19153" lon="7.26506">
        <ele>745</ele>
        <time>2014-08-12T12:46:16Z</time>
      </trkpt>
      <trkpt lat="48.19162" lon="7.26511">
        <ele>745</ele>
        <time>2014-08-12T12:46:24Z</time>
      </trkpt>
      <trkpt lat="48.19167" lon="7.26517">
        <ele>739</ele>
        <time>2014-08-12T12:46:30Z</time>
      </trkpt>
      <trkpt lat="48.19178" lon="7.26527">
        <ele>738</ele>
        <time>2014-08-12T12:46:41Z</time>
      </trkpt>
      <trkpt lat="48.19188" lon="7.2654">
        <ele>737</ele>
        <time>2014-08-12T12:46:53Z</time>
      </trkpt>
      <trkpt lat="48.19193" lon="7.26547">
        <ele>737</ele>
        <time>2014-08-12T12:46:58Z</time>
      </trkpt>
      <trkpt lat="48.19201" lon="7.26555">
        <ele>737</ele>
        <time>2014-08-12T12:47:04Z</time>
      </trkpt>
      <trkpt lat="48.19213" lon="7.26569">
        <ele>736</ele>
        <time>2014-08-12T12:47:16Z</time>
      </trkpt>
      <trkpt lat="48.19212" lon="7.26572">
        <ele>736</ele>
        <time>2014-08-12T12:47:17Z</time>
      </trkpt>
      <trkpt lat="48.19215" lon="7.2658">
        <ele>736</ele>
        <time>2014-08-12T12:47:27Z</time>
      </trkpt>
      <trkpt lat="48.19216" lon="7.26585">
        <ele>737</ele>
        <time>2014-08-12T12:47:29Z</time>
      </trkpt>
      <trkpt lat="48.19226" lon="7.26613">
        <ele>736</ele>
        <time>2014-08-12T12:47:40Z</time>
      </trkpt>
      <trkpt lat="48.19225" lon="7.26626">
        <ele>736</ele>
        <time>2014-08-12T12:47:44Z</time>
      </trkpt>
      <trkpt lat="48.19222" lon="7.2665">
        <ele>736</ele>
        <time>2014-08-12T12:47:54Z</time>
      </trkpt>
      <trkpt lat="48.19224" lon="7.26653">
        <ele>736</ele>
        <time>2014-08-12T12:47:56Z</time>
      </trkpt>
      <trkpt lat="48.19224" lon="7.26666">
        <ele>736</ele>
        <time>2014-08-12T12:48:06Z</time>
      </trkpt>
      <trkpt lat="48.19222" lon="7.26687">
        <ele>731</ele>
        <time>2014-08-12T12:48:16Z</time>
      </trkpt>
      <trkpt lat="48.19222" lon="7.26693">
        <ele>731</ele>
        <time>2014-08-12T12:48:27Z</time>
      </trkpt>
      <trkpt lat="48.19222" lon="7.26689">
        <ele>731</ele>
        <time>2014-08-12T12:48:46Z</time>
      </trkpt>
      <trkpt lat="48.19223" lon="7.26684">
        <ele>731</ele>
        <time>2014-08-12T12:49:54Z</time>
      </trkpt>
      <trkpt lat="48.19228" lon="7.26672">
        <ele>732</ele>
        <time>2014-08-12T12:50:04Z</time>
      </trkpt>
      <trkpt lat="48.19231" lon="7.26673">
        <ele>732</ele>
        <time>2014-08-12T12:50:14Z</time>
      </trkpt>
      <trkpt lat="48.1923" lon="7.26677">
        <ele>732</ele>
        <time>2014-08-12T12:50:23Z</time>
      </trkpt>
      <trkpt lat="48.19231" lon="7.26681">
        <ele>732</ele>
        <time>2014-08-12T12:50:39Z</time>
      </trkpt>
      <trkpt lat="48.19231" lon="7.26686">
        <ele>732</ele>
        <time>2014-08-12T12:50:42Z</time>
      </trkpt>
      <trkpt lat="48.19242" lon="7.26698">
        <ele>731</ele>
        <time>2014-08-12T12:50:52Z</time>
      </trkpt>
      <trkpt lat="48.19254" lon="7.2671">
        <ele>735</ele>
        <time>2014-08-12T12:51:03Z</time>
      </trkpt>
      <trkpt lat="48.19255" lon="7.26713">
        <ele>735</ele>
        <time>2014-08-12T12:51:05Z</time>
      </trkpt>
      <trkpt lat="48.19269" lon="7.26748">
        <ele>733</ele>
        <time>2014-08-12T12:51:20Z</time>
      </trkpt>
      <trkpt lat="48.19277" lon="7.26761">
        <ele>728</ele>
        <time>2014-08-12T12:51:26Z</time>
      </trkpt>
      <trkpt lat="48.19279" lon="7.26765">
        <ele>728</ele>
        <time>2014-08-12T12:51:28Z</time>
      </trkpt>
      <trkpt lat="48.19291" lon="7.26776">
        <ele>729</ele>
        <time>2014-08-12T12:51:40Z</time>
      </trkpt>
      <trkpt lat="48.19303" lon="7.26799">
        <ele>728</ele>
        <time>2014-08-12T12:51:51Z</time>
      </trkpt>
      <trkpt lat="48.19309" lon="7.26811">
        <ele>728</ele>
        <time>2014-08-12T12:51:55Z</time>
      </trkpt>
      <trkpt lat="48.19325" lon="7.26819">
        <ele>730</ele>
        <time>2014-08-12T12:52:06Z</time>
      </trkpt>
      <trkpt lat="48.19336" lon="7.26831">
        <ele>734</ele>
        <time>2014-08-12T12:52:17Z</time>
      </trkpt>
      <trkpt lat="48.1935" lon="7.26842">
        <ele>731</ele>
        <time>2014-08-12T12:52:27Z</time>
      </trkpt>
      <trkpt lat="48.19364" lon="7.2685">
        <ele>731</ele>
        <time>2014-08-12T12:52:37Z</time>
      </trkpt>
      <trkpt lat="48.19378" lon="7.26864">
        <ele>731</ele>
        <time>2014-08-12T12:52:47Z</time>
      </trkpt>
      <trkpt lat="48.19389" lon="7.26869">
        <ele>731</ele>
        <time>2014-08-12T12:52:53Z</time>
      </trkpt>
      <trkpt lat="48.19405" lon="7.26883">
        <ele>731</ele>
        <time>2014-08-12T12:53:04Z</time>
      </trkpt>
      <trkpt lat="48.19407" lon="7.26886">
        <ele>731</ele>
        <time>2014-08-12T12:53:06Z</time>
      </trkpt>
      <trkpt lat="48.19408" lon="7.2689">
        <ele>730</ele>
        <time>2014-08-12T12:53:08Z</time>
      </trkpt>
      <trkpt lat="48.19414" lon="7.26894">
        <ele>730</ele>
        <time>2014-08-12T12:53:19Z</time>
      </trkpt>
      <trkpt lat="48.19428" lon="7.26899">
        <ele>734</ele>
        <time>2014-08-12T12:53:29Z</time>
      </trkpt>
      <trkpt lat="48.19437" lon="7.269">
        <ele>735</ele>
        <time>2014-08-12T12:53:36Z</time>
      </trkpt>
      <trkpt lat="48.19451" lon="7.26898">
        <ele>736</ele>
        <time>2014-08-12T12:53:47Z</time>
      </trkpt>
      <trkpt lat="48.19455" lon="7.26899">
        <ele>736</ele>
        <time>2014-08-12T12:53:49Z</time>
      </trkpt>
      <trkpt lat="48.19458" lon="7.26899">
        <ele>736</ele>
        <time>2014-08-12T12:53:51Z</time>
      </trkpt>
      <trkpt lat="48.1948" lon="7.26911">
        <ele>736</ele>
        <time>2014-08-12T12:54:02Z</time>
      </trkpt>
      <trkpt lat="48.1949" lon="7.26917">
        <ele>733</ele>
        <time>2014-08-12T12:54:09Z</time>
      </trkpt>
      <trkpt lat="48.19503" lon="7.26927">
        <ele>733</ele>
        <time>2014-08-12T12:54:20Z</time>
      </trkpt>
      <trkpt lat="48.19507" lon="7.26934">
        <ele>732</ele>
        <time>2014-08-12T12:54:26Z</time>
      </trkpt>
      <trkpt lat="48.19512" lon="7.26944">
        <ele>731</ele>
        <time>2014-08-12T12:54:36Z</time>
      </trkpt>
      <trkpt lat="48.19516" lon="7.26956">
        <ele>730</ele>
        <time>2014-08-12T12:54:47Z</time>
      </trkpt>
      <trkpt lat="48.19519" lon="7.26964">
        <ele>730</ele>
        <time>2014-08-12T12:55:05Z</time>
      </trkpt>
      <trkpt lat="48.19531" lon="7.26977">
        <ele>729</ele>
        <time>2014-08-12T12:55:15Z</time>
      </trkpt>
      <trkpt lat="48.19541" lon="7.26997">
        <ele>729</ele>
        <time>2014-08-12T12:55:25Z</time>
      </trkpt>
      <trkpt lat="48.19553" lon="7.27005">
        <ele>726</ele>
        <time>2014-08-12T12:55:37Z</time>
      </trkpt>
      <trkpt lat="48.19557" lon="7.27006">
        <ele>726</ele>
        <time>2014-08-12T12:55:39Z</time>
      </trkpt>
      <trkpt lat="48.19571" lon="7.27021">
        <ele>726</ele>
        <time>2014-08-12T12:55:50Z</time>
      </trkpt>
      <trkpt lat="48.19575" lon="7.27018">
        <ele>727</ele>
        <time>2014-08-12T12:56:12Z</time>
      </trkpt>
      <trkpt lat="48.19562" lon="7.27003">
        <ele>727</ele>
        <time>2014-08-12T12:56:23Z</time>
      </trkpt>
      <trkpt lat="48.19555" lon="7.26993">
        <ele>729</ele>
        <time>2014-08-12T12:56:32Z</time>
      </trkpt>
      <trkpt lat="48.19555" lon="7.26989">
        <ele>729</ele>
        <time>2014-08-12T12:56:38Z</time>
      </trkpt>
      <trkpt lat="48.19557" lon="7.26986">
        <ele>729</ele>
        <time>2014-08-12T12:57:06Z</time>
      </trkpt>
      <trkpt lat="48.19554" lon="7.26981">
        <ele>729</ele>
        <time>2014-08-12T12:57:53Z</time>
      </trkpt>
      <trkpt lat="48.1955" lon="7.26973">
        <ele>729</ele>
        <time>2014-08-12T12:58:03Z</time>
      </trkpt>
      <trkpt lat="48.19547" lon="7.26965">
        <ele>729</ele>
        <time>2014-08-12T12:58:20Z</time>
      </trkpt>
      <trkpt lat="48.19547" lon="7.26961">
        <ele>729</ele>
        <time>2014-08-12T12:58:27Z</time>
      </trkpt>
      <trkpt lat="48.19544" lon="7.26962">
        <ele>729</ele>
        <time>2014-08-12T13:01:23Z</time>
      </trkpt>
      <trkpt lat="48.19542" lon="7.26965">
        <ele>729</ele>
        <time>2014-08-12T13:03:25Z</time>
      </trkpt>
      <trkpt lat="48.19545" lon="7.26963">
        <ele>729</ele>
        <time>2014-08-12T13:03:59Z</time>
      </trkpt>
      <trkpt lat="48.19547" lon="7.26966">
        <ele>729</ele>
        <time>2014-08-12T13:06:06Z</time>
      </trkpt>
      <trkpt lat="48.19548" lon="7.2697">
        <ele>729</ele>
        <time>2014-08-12T13:06:57Z</time>
      </trkpt>
      <trkpt lat="48.19551" lon="7.26972">
        <ele>729</ele>
        <time>2014-08-12T13:07:09Z</time>
      </trkpt>
      <trkpt lat="48.19556" lon="7.26971">
        <ele>729</ele>
        <time>2014-08-12T13:07:12Z</time>
      </trkpt>
      <trkpt lat="48.19553" lon="7.26972">
        <ele>729</ele>
        <time>2014-08-12T13:07:23Z</time>
      </trkpt>
      <trkpt lat="48.1955" lon="7.26969">
        <ele>729</ele>
        <time>2014-08-12T13:07:40Z</time>
      </trkpt>
      <trkpt lat="48.19541" lon="7.26961">
        <ele>729</ele>
        <time>2014-08-12T13:07:49Z</time>
      </trkpt>
      <trkpt lat="48.19543" lon="7.26965">
        <ele>729</ele>
        <time>2014-08-12T13:08:04Z</time>
      </trkpt>
      <trkpt lat="48.19544" lon="7.26976">
        <ele>729</ele>
        <time>2014-08-12T13:08:20Z</time>
      </trkpt>
      <trkpt lat="48.19547" lon="7.26977">
        <ele>729</ele>
        <time>2014-08-12T13:09:41Z</time>
      </trkpt>
      <trkpt lat="48.1955" lon="7.26979">
        <ele>729</ele>
        <time>2014-08-12T13:09:58Z</time>
      </trkpt>
      <trkpt lat="48.19554" lon="7.26978">
        <ele>729</ele>
        <time>2014-08-12T13:10:18Z</time>
      </trkpt>
      <trkpt lat="48.19556" lon="7.26984">
        <ele>729</ele>
        <time>2014-08-12T13:10:30Z</time>
      </trkpt>
      <trkpt lat="48.19563" lon="7.26994">
        <ele>729</ele>
        <time>2014-08-12T13:10:41Z</time>
      </trkpt>
      <trkpt lat="48.19569" lon="7.27006">
        <ele>727</ele>
        <time>2014-08-12T13:10:51Z</time>
      </trkpt>
      <trkpt lat="48.19573" lon="7.27015">
        <ele>727</ele>
        <time>2014-08-12T13:10:57Z</time>
      </trkpt>
      <trkpt lat="48.19572" lon="7.27007">
        <ele>728</ele>
        <time>2014-08-12T13:11:07Z</time>
      </trkpt>
      <trkpt lat="48.19574" lon="7.27004">
        <ele>728</ele>
        <time>2014-08-12T13:11:10Z</time>
      </trkpt>
      <trkpt lat="48.19571" lon="7.27009">
        <ele>727</ele>
        <time>2014-08-12T13:11:28Z</time>
      </trkpt>
      <trkpt lat="48.19553" lon="7.27005">
        <ele>726</ele>
        <time>2014-08-12T13:11:40Z</time>
      </trkpt>
      <trkpt lat="48.1955" lon="7.27006">
        <ele>726</ele>
        <time>2014-08-12T13:11:43Z</time>
      </trkpt>
      <trkpt lat="48.19538" lon="7.27005">
        <ele>725</ele>
        <time>2014-08-12T13:11:55Z</time>
      </trkpt>
      <trkpt lat="48.1953" lon="7.26996">
        <ele>729</ele>
        <time>2014-08-12T13:12:05Z</time>
      </trkpt>
      <trkpt lat="48.19522" lon="7.2698">
        <ele>729</ele>
        <time>2014-08-12T13:12:17Z</time>
      </trkpt>
      <trkpt lat="48.19522" lon="7.26971">
        <ele>729</ele>
        <time>2014-08-12T13:12:25Z</time>
      </trkpt>
      <trkpt lat="48.19521" lon="7.26966">
        <ele>729</ele>
        <time>2014-08-12T13:12:30Z</time>
      </trkpt>
      <trkpt lat="48.19516" lon="7.26953">
        <ele>730</ele>
        <time>2014-08-12T13:12:41Z</time>
      </trkpt>
      <trkpt lat="48.19509" lon="7.26942">
        <ele>731</ele>
        <time>2014-08-12T13:12:51Z</time>
      </trkpt>
      <trkpt lat="48.19505" lon="7.26931">
        <ele>733</ele>
        <time>2014-08-12T13:13:00Z</time>
      </trkpt>
      <trkpt lat="48.19503" lon="7.26914">
        <ele>734</ele>
        <time>2014-08-12T13:13:13Z</time>
      </trkpt>
      <trkpt lat="48.19502" lon="7.26904">
        <ele>732</ele>
        <time>2014-08-12T13:14:26Z</time>
      </trkpt>
      <trkpt lat="48.19499" lon="7.26876">
        <ele>737</ele>
        <time>2014-08-12T13:14:36Z</time>
      </trkpt>
      <trkpt lat="48.195" lon="7.26846">
        <ele>737</ele>
        <time>2014-08-12T13:14:46Z</time>
      </trkpt>
      <trkpt lat="48.19507" lon="7.26827">
        <ele>731</ele>
        <time>2014-08-12T13:14:58Z</time>
      </trkpt>
      <trkpt lat="48.1951" lon="7.26822">
        <ele>729</ele>
        <time>2014-08-12T13:15:00Z</time>
      </trkpt>
      <trkpt lat="48.19511" lon="7.26805">
        <ele>725</ele>
        <time>2014-08-12T13:15:11Z</time>
      </trkpt>
      <trkpt lat="48.19511" lon="7.26782">
        <ele>724</ele>
        <time>2014-08-12T13:15:22Z</time>
      </trkpt>
      <trkpt lat="48.19508" lon="7.26762">
        <ele>726</ele>
        <time>2014-08-12T13:15:32Z</time>
      </trkpt>
      <trkpt lat="48.19503" lon="7.26738">
        <ele>725</ele>
        <time>2014-08-12T13:15:42Z</time>
      </trkpt>
      <trkpt lat="48.19501" lon="7.26719">
        <ele>720</ele>
        <time>2014-08-12T13:15:52Z</time>
      </trkpt>
      <trkpt lat="48.19505" lon="7.26693">
        <ele>718</ele>
        <time>2014-08-12T13:16:02Z</time>
      </trkpt>
      <trkpt lat="48.19504" lon="7.26688">
        <ele>719</ele>
        <time>2014-08-12T13:16:04Z</time>
      </trkpt>
      <trkpt lat="48.19505" lon="7.26683">
        <ele>719</ele>
        <time>2014-08-12T13:16:06Z</time>
      </trkpt>
      <trkpt lat="48.19505" lon="7.26679">
        <ele>720</ele>
        <time>2014-08-12T13:16:17Z</time>
      </trkpt>
      <trkpt lat="48.19505" lon="7.26664">
        <ele>720</ele>
        <time>2014-08-12T13:16:25Z</time>
      </trkpt>
      <trkpt lat="48.19505" lon="7.26648">
        <ele>714</ele>
        <time>2014-08-12T13:16:32Z</time>
      </trkpt>
      <trkpt lat="48.19503" lon="7.26635">
        <ele>712</ele>
        <time>2014-08-12T13:16:42Z</time>
      </trkpt>
      <trkpt lat="48.19502" lon="7.2663">
        <ele>711</ele>
        <time>2014-08-12T13:16:46Z</time>
      </trkpt>
      <trkpt lat="48.19501" lon="7.2662">
        <ele>710</ele>
        <time>2014-08-12T13:16:51Z</time>
      </trkpt>
      <trkpt lat="48.19502" lon="7.26615">
        <ele>709</ele>
        <time>2014-08-12T13:16:54Z</time>
      </trkpt>
      <trkpt lat="48.19504" lon="7.26608">
        <ele>709</ele>
        <time>2014-08-12T13:17:04Z</time>
      </trkpt>
      <trkpt lat="48.19498" lon="7.26603">
        <ele>716</ele>
        <time>2014-08-12T13:17:59Z</time>
      </trkpt>
      <trkpt lat="48.19493" lon="7.26584">
        <ele>712</ele>
        <time>2014-08-12T13:18:11Z</time>
      </trkpt>
      <trkpt lat="48.19483" lon="7.26575">
        <ele>706</ele>
        <time>2014-08-12T13:18:22Z</time>
      </trkpt>
      <trkpt lat="48.19472" lon="7.26562">
        <ele>705</ele>
        <time>2014-08-12T13:18:32Z</time>
      </trkpt>
      <trkpt lat="48.19463" lon="7.26546">
        <ele>704</ele>
        <time>2014-08-12T13:18:38Z</time>
      </trkpt>
      <trkpt lat="48.19455" lon="7.2653">
        <ele>702</ele>
        <time>2014-08-12T13:18:47Z</time>
      </trkpt>
      <trkpt lat="48.19441" lon="7.26516">
        <ele>701</ele>
        <time>2014-08-12T13:18:59Z</time>
      </trkpt>
      <trkpt lat="48.19426" lon="7.26509">
        <ele>700</ele>
        <time>2014-08-12T13:19:11Z</time>
      </trkpt>
      <trkpt lat="48.19415" lon="7.26499">
        <ele>697</ele>
        <time>2014-08-12T13:19:21Z</time>
      </trkpt>
      <trkpt lat="48.19407" lon="7.26491">
        <ele>695</ele>
        <time>2014-08-12T13:19:31Z</time>
      </trkpt>
      <trkpt lat="48.194" lon="7.26484">
        <ele>693</ele>
        <time>2014-08-12T13:19:40Z</time>
      </trkpt>
      <trkpt lat="48.19386" lon="7.26472">
        <ele>692</ele>
        <time>2014-08-12T13:19:53Z</time>
      </trkpt>
      <trkpt lat="48.1938" lon="7.2646">
        <ele>691</ele>
        <time>2014-08-12T13:20:04Z</time>
      </trkpt>
      <trkpt lat="48.19379" lon="7.26455">
        <ele>690</ele>
        <time>2014-08-12T13:20:08Z</time>
      </trkpt>
      <trkpt lat="48.1938" lon="7.2645">
        <ele>689</ele>
        <time>2014-08-12T13:20:12Z</time>
      </trkpt>
      <trkpt lat="48.19374" lon="7.2644">
        <ele>688</ele>
        <time>2014-08-12T13:20:23Z</time>
      </trkpt>
      <trkpt lat="48.19372" lon="7.26436">
        <ele>688</ele>
        <time>2014-08-12T13:20:34Z</time>
      </trkpt>
      <trkpt lat="48.19364" lon="7.26424">
        <ele>688</ele>
        <time>2014-08-12T13:20:44Z</time>
      </trkpt>
      <trkpt lat="48.19356" lon="7.26417">
        <ele>687</ele>
        <time>2014-08-12T13:20:54Z</time>
      </trkpt>
      <trkpt lat="48.19351" lon="7.26412">
        <ele>678</ele>
        <time>2014-08-12T13:21:05Z</time>
      </trkpt>
      <trkpt lat="48.19346" lon="7.264">
        <ele>677</ele>
        <time>2014-08-12T13:21:14Z</time>
      </trkpt>
      <trkpt lat="48.19343" lon="7.26387">
        <ele>675</ele>
        <time>2014-08-12T13:21:34Z</time>
      </trkpt>
      <trkpt lat="48.19342" lon="7.26383">
        <ele>674</ele>
        <time>2014-08-12T13:22:16Z</time>
      </trkpt>
      <trkpt lat="48.19342" lon="7.26387">
        <ele>675</ele>
        <time>2014-08-12T13:22:48Z</time>
      </trkpt>
      <trkpt lat="48.19345" lon="7.2639">
        <ele>675</ele>
        <time>2014-08-12T13:22:55Z</time>
      </trkpt>
      <trkpt lat="48.19342" lon="7.26387">
        <ele>675</ele>
        <time>2014-08-12T13:23:17Z</time>
      </trkpt>
      <trkpt lat="48.19337" lon="7.26367">
        <ele>673</ele>
        <time>2014-08-12T13:23:25Z</time>
      </trkpt>
      <trkpt lat="48.19334" lon="7.26356">
        <ele>672</ele>
        <time>2014-08-12T13:23:29Z</time>
      </trkpt>
      <trkpt lat="48.19327" lon="7.26338">
        <ele>676</ele>
        <time>2014-08-12T13:23:44Z</time>
      </trkpt>
      <trkpt lat="48.19318" lon="7.26328">
        <ele>679</ele>
        <time>2014-08-12T13:23:56Z</time>
      </trkpt>
      <trkpt lat="48.19313" lon="7.26318">
        <ele>682</ele>
        <time>2014-08-12T13:24:08Z</time>
      </trkpt>
      <trkpt lat="48.19308" lon="7.26306">
        <ele>685</ele>
        <time>2014-08-12T13:24:19Z</time>
      </trkpt>
      <trkpt lat="48.19306" lon="7.26297">
        <ele>686</ele>
        <time>2014-08-12T13:24:25Z</time>
      </trkpt>
      <trkpt lat="48.19302" lon="7.26284">
        <ele>688</ele>
        <time>2014-08-12T13:24:35Z</time>
      </trkpt>
      <trkpt lat="48.19283" lon="7.26268">
        <ele>691</ele>
        <time>2014-08-12T13:24:57Z</time>
      </trkpt>
      <trkpt lat="48.1927" lon="7.26267">
        <ele>694</ele>
        <time>2014-08-12T13:25:12Z</time>
      </trkpt>
      <trkpt lat="48.19262" lon="7.26269">
        <ele>695</ele>
        <time>2014-08-12T13:25:24Z</time>
      </trkpt>
      <trkpt lat="48.19257" lon="7.26271">
        <ele>696</ele>
        <time>2014-08-12T13:25:31Z</time>
      </trkpt>
      <trkpt lat="48.19251" lon="7.2627">
        <ele>696</ele>
        <time>2014-08-12T13:25:41Z</time>
      </trkpt>
      <trkpt lat="48.19252" lon="7.26266">
        <ele>697</ele>
        <time>2014-08-12T13:26:13Z</time>
      </trkpt>
      <trkpt lat="48.19262" lon="7.26255">
        <ele>698</ele>
        <time>2014-08-12T13:26:34Z</time>
      </trkpt>
      <trkpt lat="48.19265" lon="7.26254">
        <ele>697</ele>
        <time>2014-08-12T13:26:38Z</time>
      </trkpt>
      <trkpt lat="48.19274" lon="7.26252">
        <ele>694</ele>
        <time>2014-08-12T13:26:50Z</time>
      </trkpt>
      <trkpt lat="48.19275" lon="7.26247">
        <ele>700</ele>
        <time>2014-08-12T13:26:54Z</time>
      </trkpt>
      <trkpt lat="48.1928" lon="7.26239">
        <ele>699</ele>
        <time>2014-08-12T13:27:02Z</time>
      </trkpt>
      <trkpt lat="48.19289" lon="7.26227">
        <ele>698</ele>
        <time>2014-08-12T13:27:14Z</time>
      </trkpt>
      <trkpt lat="48.19295" lon="7.26221">
        <ele>698</ele>
        <time>2014-08-12T13:27:20Z</time>
      </trkpt>
      <trkpt lat="48.19301" lon="7.26204">
        <ele>698</ele>
        <time>2014-08-12T13:27:32Z</time>
      </trkpt>
      <trkpt lat="48.19298" lon="7.26192">
        <ele>699</ele>
        <time>2014-08-12T13:27:53Z</time>
      </trkpt>
      <trkpt lat="48.19294" lon="7.26175">
        <ele>700</ele>
        <time>2014-08-12T13:28:05Z</time>
      </trkpt>
      <trkpt lat="48.19294" lon="7.26171">
        <ele>700</ele>
        <time>2014-08-12T13:28:09Z</time>
      </trkpt>
      <trkpt lat="48.19288" lon="7.26168">
        <ele>701</ele>
        <time>2014-08-12T13:28:14Z</time>
      </trkpt>
      <trkpt lat="48.19281" lon="7.26169">
        <ele>703</ele>
        <time>2014-08-12T13:28:23Z</time>
      </trkpt>
      <trkpt lat="48.19283" lon="7.26177">
        <ele>702</ele>
        <time>2014-08-12T13:28:28Z</time>
      </trkpt>
      <trkpt lat="48.19288" lon="7.26197">
        <ele>700</ele>
        <time>2014-08-12T13:28:38Z</time>
      </trkpt>
      <trkpt lat="48.19282" lon="7.26208">
        <ele>700</ele>
        <time>2014-08-12T13:28:46Z</time>
      </trkpt>
      <trkpt lat="48.1927" lon="7.26209">
        <ele>701</ele>
        <time>2014-08-12T13:28:58Z</time>
      </trkpt>
      <trkpt lat="48.1926" lon="7.26213">
        <ele>702</ele>
        <time>2014-08-12T13:29:09Z</time>
      </trkpt>
      <trkpt lat="48.19248" lon="7.26218">
        <ele>718</ele>
        <time>2014-08-12T13:29:20Z</time>
      </trkpt>
      <trkpt lat="48.19245" lon="7.26218">
        <ele>719</ele>
        <time>2014-08-12T13:29:22Z</time>
      </trkpt>
      <trkpt lat="48.1923" lon="7.26226">
        <ele>720</ele>
        <time>2014-08-12T13:29:34Z</time>
      </trkpt>
      <trkpt lat="48.1922" lon="7.26239">
        <ele>721</ele>
        <time>2014-08-12T13:29:44Z</time>
      </trkpt>
      <trkpt lat="48.19217" lon="7.26242">
        <ele>722</ele>
        <time>2014-08-12T13:29:46Z</time>
      </trkpt>
      <trkpt lat="48.19208" lon="7.26257">
        <ele>720</ele>
        <time>2014-08-12T13:29:56Z</time>
      </trkpt>
      <trkpt lat="48.19208" lon="7.26261">
        <ele>721</ele>
        <time>2014-08-12T13:30:01Z</time>
      </trkpt>
      <trkpt lat="48.19205" lon="7.26257">
        <ele>721</ele>
        <time>2014-08-12T13:30:15Z</time>
      </trkpt>
      <trkpt lat="48.19193" lon="7.26238">
        <ele>729</ele>
        <time>2014-08-12T13:30:26Z</time>
      </trkpt>
      <trkpt lat="48.19192" lon="7.26229">
        <ele>729</ele>
        <time>2014-08-12T13:30:45Z</time>
      </trkpt>
      <trkpt lat="48.1919" lon="7.26217">
        <ele>729</ele>
        <time>2014-08-12T13:30:55Z</time>
      </trkpt>
      <trkpt lat="48.19185" lon="7.26202">
        <ele>730</ele>
        <time>2014-08-12T13:31:05Z</time>
      </trkpt>
      <trkpt lat="48.19182" lon="7.26194">
        <ele>732</ele>
        <time>2014-08-12T13:31:10Z</time>
      </trkpt>
      <trkpt lat="48.19177" lon="7.26174">
        <ele>737</ele>
        <time>2014-08-12T13:31:24Z</time>
      </trkpt>
      <trkpt lat="48.19171" lon="7.26155">
        <ele>739</ele>
        <time>2014-08-12T13:31:35Z</time>
      </trkpt>
      <trkpt lat="48.19169" lon="7.26151">
        <ele>739</ele>
        <time>2014-08-12T13:31:38Z</time>
      </trkpt>
      <trkpt lat="48.19165" lon="7.26132">
        <ele>753</ele>
        <time>2014-08-12T13:31:48Z</time>
      </trkpt>
      <trkpt lat="48.19166" lon="7.26123">
        <ele>753</ele>
        <time>2014-08-12T13:31:52Z</time>
      </trkpt>
      <trkpt lat="48.19171" lon="7.2611">
        <ele>739</ele>
        <time>2014-08-12T13:32:02Z</time>
      </trkpt>
      <trkpt lat="48.1917" lon="7.26093">
        <ele>743</ele>
        <time>2014-08-12T13:32:13Z</time>
      </trkpt>
      <trkpt lat="48.1917" lon="7.26088">
        <ele>745</ele>
        <time>2014-08-12T13:32:16Z</time>
      </trkpt>
      <trkpt lat="48.19166" lon="7.2607">
        <ele>755</ele>
        <time>2014-08-12T13:32:26Z</time>
      </trkpt>
      <trkpt lat="48.19159" lon="7.26051">
        <ele>759</ele>
        <time>2014-08-12T13:32:36Z</time>
      </trkpt>
      <trkpt lat="48.19157" lon="7.26043">
        <ele>760</ele>
        <time>2014-08-12T13:32:40Z</time>
      </trkpt>
      <trkpt lat="48.19156" lon="7.26024">
        <ele>761</ele>
        <time>2014-08-12T13:32:49Z</time>
      </trkpt>
      <trkpt lat="48.19156" lon="7.26003">
        <ele>761</ele>
        <time>2014-08-12T13:33:00Z</time>
      </trkpt>
      <trkpt lat="48.19156" lon="7.25984">
        <ele>766</ele>
        <time>2014-08-12T13:33:11Z</time>
      </trkpt>
      <trkpt lat="48.19153" lon="7.25975">
        <ele>767</ele>
        <time>2014-08-12T13:33:17Z</time>
      </trkpt>
      <trkpt lat="48.19147" lon="7.25957">
        <ele>769</ele>
        <time>2014-08-12T13:33:28Z</time>
      </trkpt>
      <trkpt lat="48.19143" lon="7.25935">
        <ele>770</ele>
        <time>2014-08-12T13:33:40Z</time>
      </trkpt>
      <trkpt lat="48.19143" lon="7.25926">
        <ele>770</ele>
        <time>2014-08-12T13:33:45Z</time>
      </trkpt>
      <trkpt lat="48.19143" lon="7.25921">
        <ele>770</ele>
        <time>2014-08-12T13:33:47Z</time>
      </trkpt>
      <trkpt lat="48.19143" lon="7.25916">
        <ele>773</ele>
        <time>2014-08-12T13:33:50Z</time>
      </trkpt>
      <trkpt lat="48.19141" lon="7.25901">
        <ele>774</ele>
        <time>2014-08-12T13:34:06Z</time>
      </trkpt>
      <trkpt lat="48.19139" lon="7.25877">
        <ele>775</ele>
        <time>2014-08-12T13:34:16Z</time>
      </trkpt>
      <trkpt lat="48.19139" lon="7.25856">
        <ele>776</ele>
        <time>2014-08-12T13:34:27Z</time>
      </trkpt>
      <trkpt lat="48.19138" lon="7.25834">
        <ele>776</ele>
        <time>2014-08-12T13:34:37Z</time>
      </trkpt>
      <trkpt lat="48.19146" lon="7.25806">
        <ele>778</ele>
        <time>2014-08-12T13:34:47Z</time>
      </trkpt>
      <trkpt lat="48.19146" lon="7.25802">
        <ele>778</ele>
        <time>2014-08-12T13:34:49Z</time>
      </trkpt>
      <trkpt lat="48.19145" lon="7.25797">
        <ele>779</ele>
        <time>2014-08-12T13:34:51Z</time>
      </trkpt>
      <trkpt lat="48.19143" lon="7.25785">
        <ele>779</ele>
        <time>2014-08-12T13:35:05Z</time>
      </trkpt>
      <trkpt lat="48.19143" lon="7.2578">
        <ele>779</ele>
        <time>2014-08-12T13:35:08Z</time>
      </trkpt>
      <trkpt lat="48.19148" lon="7.25782">
        <ele>778</ele>
        <time>2014-08-12T13:35:15Z</time>
      </trkpt>
      <trkpt lat="48.19153" lon="7.2579">
        <ele>778</ele>
        <time>2014-08-12T13:35:26Z</time>
      </trkpt>
      <trkpt lat="48.19157" lon="7.25787">
        <ele>778</ele>
        <time>2014-08-12T13:35:36Z</time>
      </trkpt>
      <trkpt lat="48.19162" lon="7.25781">
        <ele>778</ele>
        <time>2014-08-12T13:35:48Z</time>
      </trkpt>
      <trkpt lat="48.19159" lon="7.25782">
        <ele>778</ele>
        <time>2014-08-12T13:35:59Z</time>
      </trkpt>
      <trkpt lat="48.19156" lon="7.25782">
        <ele>778</ele>
        <time>2014-08-12T13:36:01Z</time>
      </trkpt>
      <trkpt lat="48.19153" lon="7.25782">
        <ele>778</ele>
        <time>2014-08-12T13:36:07Z</time>
      </trkpt>
      <trkpt lat="48.19149" lon="7.25781">
        <ele>778</ele>
        <time>2014-08-12T13:36:12Z</time>
      </trkpt>
      <trkpt lat="48.19143" lon="7.2578">
        <ele>779</ele>
        <time>2014-08-12T13:36:24Z</time>
      </trkpt>
      <trkpt lat="48.1914" lon="7.25781">
        <ele>779</ele>
        <time>2014-08-12T13:36:43Z</time>
      </trkpt>
      <trkpt lat="48.19137" lon="7.25782">
        <ele>779</ele>
        <time>2014-08-12T13:37:53Z</time>
      </trkpt>
      <trkpt lat="48.19134" lon="7.25781">
        <ele>779</ele>
        <time>2014-08-12T13:38:06Z</time>
      </trkpt>
      <trkpt lat="48.19133" lon="7.25785">
        <ele>779</ele>
        <time>2014-08-12T13:38:11Z</time>
      </trkpt>
      <trkpt lat="48.19136" lon="7.25795">
        <ele>779</ele>
        <time>2014-08-12T13:41:44Z</time>
      </trkpt>
      <trkpt lat="48.19075" lon="7.25803">
        <ele>785</ele>
        <time>2014-08-12T13:41:54Z</time>
      </trkpt>
      <trkpt lat="48.19079" lon="7.25802">
        <ele>785</ele>
        <time>2014-08-12T13:41:55Z</time>
      </trkpt>
      <trkpt lat="48.19089" lon="7.25811">
        <ele>782</ele>
        <time>2014-08-12T13:42:01Z</time>
      </trkpt>
      <trkpt lat="48.1909" lon="7.25816">
        <ele>782</ele>
        <time>2014-08-12T13:42:04Z</time>
      </trkpt>
      <trkpt lat="48.19084" lon="7.25816">
        <ele>782</ele>
        <time>2014-08-12T13:42:11Z</time>
      </trkpt>
      <trkpt lat="48.19074" lon="7.25817">
        <ele>785</ele>
        <time>2014-08-12T13:42:22Z</time>
      </trkpt>
      <trkpt lat="48.19071" lon="7.25816">
        <ele>785</ele>
        <time>2014-08-12T13:42:25Z</time>
      </trkpt>
      <trkpt lat="48.19061" lon="7.25815">
        <ele>785</ele>
        <time>2014-08-12T13:42:36Z</time>
      </trkpt>
      <trkpt lat="48.19045" lon="7.25812">
        <ele>785</ele>
        <time>2014-08-12T13:42:46Z</time>
      </trkpt>
      <trkpt lat="48.19035" lon="7.25796">
        <ele>785</ele>
        <time>2014-08-12T13:42:58Z</time>
      </trkpt>
      <trkpt lat="48.19044" lon="7.25771">
        <ele>786</ele>
        <time>2014-08-12T13:43:09Z</time>
      </trkpt>
      <trkpt lat="48.19044" lon="7.2576">
        <ele>786</ele>
        <time>2014-08-12T13:43:17Z</time>
      </trkpt>
      <trkpt lat="48.19039" lon="7.25736">
        <ele>788</ele>
        <time>2014-08-12T13:43:31Z</time>
      </trkpt>
      <trkpt lat="48.19038" lon="7.25715">
        <ele>789</ele>
        <time>2014-08-12T13:43:42Z</time>
      </trkpt>
      <trkpt lat="48.19032" lon="7.25687">
        <ele>789</ele>
        <time>2014-08-12T13:43:52Z</time>
      </trkpt>
      <trkpt lat="48.1903" lon="7.25672">
        <ele>789</ele>
        <time>2014-08-12T13:43:58Z</time>
      </trkpt>
      <trkpt lat="48.19018" lon="7.25653">
        <ele>792</ele>
        <time>2014-08-12T13:44:09Z</time>
      </trkpt>
      <trkpt lat="48.19018" lon="7.25649">
        <ele>792</ele>
        <time>2014-08-12T13:44:15Z</time>
      </trkpt>
      <trkpt lat="48.19017" lon="7.25645">
        <ele>792</ele>
        <time>2014-08-12T13:44:18Z</time>
      </trkpt>
      <trkpt lat="48.19014" lon="7.25625">
        <ele>794</ele>
        <time>2014-08-12T13:44:30Z</time>
      </trkpt>
      <trkpt lat="48.19011" lon="7.25612">
        <ele>795</ele>
        <time>2014-08-12T13:44:39Z</time>
      </trkpt>
      <trkpt lat="48.19005" lon="7.25595">
        <ele>796</ele>
        <time>2014-08-12T13:44:51Z</time>
      </trkpt>
      <trkpt lat="48.18999" lon="7.25576">
        <ele>796</ele>
        <time>2014-08-12T13:45:01Z</time>
      </trkpt>
      <trkpt lat="48.18997" lon="7.25572">
        <ele>796</ele>
        <time>2014-08-12T13:45:03Z</time>
      </trkpt>
      <trkpt lat="48.18991" lon="7.25553">
        <ele>796</ele>
        <time>2014-08-12T13:45:14Z</time>
      </trkpt>
      <trkpt lat="48.18982" lon="7.25532">
        <ele>797</ele>
        <time>2014-08-12T13:45:25Z</time>
      </trkpt>
      <trkpt lat="48.18983" lon="7.25527">
        <ele>798</ele>
        <time>2014-08-12T13:45:27Z</time>
      </trkpt>
      <trkpt lat="48.1898" lon="7.25513">
        <ele>800</ele>
        <time>2014-08-12T13:45:37Z</time>
      </trkpt>
      <trkpt lat="48.18979" lon="7.25508">
        <ele>800</ele>
        <time>2014-08-12T13:45:40Z</time>
      </trkpt>
      <trkpt lat="48.18977" lon="7.25504">
        <ele>800</ele>
        <time>2014-08-12T13:45:42Z</time>
      </trkpt>
      <trkpt lat="48.18966" lon="7.25485">
        <ele>807</ele>
        <time>2014-08-12T13:45:52Z</time>
      </trkpt>
      <trkpt lat="48.18964" lon="7.25481">
        <ele>807</ele>
        <time>2014-08-12T13:45:54Z</time>
      </trkpt>
      <trkpt lat="48.18955" lon="7.25468">
        <ele>807</ele>
        <time>2014-08-12T13:46:06Z</time>
      </trkpt>
      <trkpt lat="48.18952" lon="7.25464">
        <ele>807</ele>
        <time>2014-08-12T13:46:09Z</time>
      </trkpt>
      <trkpt lat="48.18944" lon="7.25444">
        <ele>808</ele>
        <time>2014-08-12T13:46:19Z</time>
      </trkpt>
      <trkpt lat="48.18934" lon="7.25424">
        <ele>808</ele>
        <time>2014-08-12T13:46:30Z</time>
      </trkpt>
      <trkpt lat="48.1893" lon="7.25398">
        <ele>818</ele>
        <time>2014-08-12T13:46:41Z</time>
      </trkpt>
      <trkpt lat="48.1893" lon="7.25379">
        <ele>822</ele>
        <time>2014-08-12T13:46:55Z</time>
      </trkpt>
      <trkpt lat="48.18928" lon="7.25374">
        <ele>822</ele>
        <time>2014-08-12T13:47:06Z</time>
      </trkpt>
      <trkpt lat="48.18918" lon="7.25358">
        <ele>823</ele>
        <time>2014-08-12T13:47:18Z</time>
      </trkpt>
      <trkpt lat="48.1891" lon="7.25341">
        <ele>816</ele>
        <time>2014-08-12T13:47:30Z</time>
      </trkpt>
      <trkpt lat="48.18905" lon="7.25333">
        <ele>823</ele>
        <time>2014-08-12T13:47:36Z</time>
      </trkpt>
      <trkpt lat="48.18898" lon="7.25314">
        <ele>824</ele>
        <time>2014-08-12T13:47:47Z</time>
      </trkpt>
      <trkpt lat="48.18889" lon="7.25301">
        <ele>824</ele>
        <time>2014-08-12T13:47:57Z</time>
      </trkpt>
      <trkpt lat="48.18887" lon="7.25298">
        <ele>824</ele>
        <time>2014-08-12T13:48:00Z</time>
      </trkpt>
      <trkpt lat="48.18873" lon="7.25274">
        <ele>826</ele>
        <time>2014-08-12T13:48:11Z</time>
      </trkpt>
      <trkpt lat="48.18871" lon="7.25272">
        <ele>826</ele>
        <time>2014-08-12T13:48:12Z</time>
      </trkpt>
      <trkpt lat="48.18868" lon="7.25266">
        <ele>826</ele>
        <time>2014-08-12T13:48:14Z</time>
      </trkpt>
      <trkpt lat="48.18866" lon="7.25263">
        <ele>826</ele>
        <time>2014-08-12T13:48:16Z</time>
      </trkpt>
      <trkpt lat="48.18859" lon="7.25253">
        <ele>826</ele>
        <time>2014-08-12T13:48:26Z</time>
      </trkpt>
      <trkpt lat="48.18856" lon="7.2525">
        <ele>837</ele>
        <time>2014-08-12T13:48:29Z</time>
      </trkpt>
      <trkpt lat="48.18854" lon="7.25246">
        <ele>836</ele>
        <time>2014-08-12T13:48:32Z</time>
      </trkpt>
      <trkpt lat="48.18848" lon="7.25229">
        <ele>838</ele>
        <time>2014-08-12T13:48:44Z</time>
      </trkpt>
      <trkpt lat="48.18845" lon="7.25225">
        <ele>839</ele>
        <time>2014-08-12T13:48:47Z</time>
      </trkpt>
      <trkpt lat="48.18834" lon="7.25208">
        <ele>842</ele>
        <time>2014-08-12T13:48:59Z</time>
      </trkpt>
      <trkpt lat="48.18827" lon="7.25197">
        <ele>831</ele>
        <time>2014-08-12T13:49:08Z</time>
      </trkpt>
      <trkpt lat="48.1882" lon="7.25181">
        <ele>834</ele>
        <time>2014-08-12T13:49:20Z</time>
      </trkpt>
      <trkpt lat="48.18818" lon="7.25178">
        <ele>835</ele>
        <time>2014-08-12T13:49:23Z</time>
      </trkpt>
      <trkpt lat="48.18809" lon="7.25163">
        <ele>848</ele>
        <time>2014-08-12T13:49:35Z</time>
      </trkpt>
      <trkpt lat="48.18799" lon="7.25158">
        <ele>848</ele>
        <time>2014-08-12T13:49:45Z</time>
      </trkpt>
      <trkpt lat="48.18787" lon="7.25145">
        <ele>849</ele>
        <time>2014-08-12T13:49:57Z</time>
      </trkpt>
      <trkpt lat="48.18784" lon="7.25136">
        <ele>850</ele>
        <time>2014-08-12T13:50:03Z</time>
      </trkpt>
      <trkpt lat="48.18774" lon="7.25124">
        <ele>852</ele>
        <time>2014-08-12T13:50:14Z</time>
      </trkpt>
      <trkpt lat="48.18753" lon="7.25109">
        <ele>855</ele>
        <time>2014-08-12T13:50:24Z</time>
      </trkpt>
      <trkpt lat="48.18746" lon="7.25095">
        <ele>855</ele>
        <time>2014-08-12T13:50:36Z</time>
      </trkpt>
      <trkpt lat="48.18737" lon="7.25086">
        <ele>855</ele>
        <time>2014-08-12T13:50:48Z</time>
      </trkpt>
      <trkpt lat="48.18731" lon="7.25084">
        <ele>854</ele>
        <time>2014-08-12T13:50:55Z</time>
      </trkpt>
      <trkpt lat="48.18732" lon="7.25088">
        <ele>854</ele>
        <time>2014-08-12T13:52:10Z</time>
      </trkpt>
      <trkpt lat="48.18729" lon="7.25085">
        <ele>853</ele>
        <time>2014-08-12T13:52:55Z</time>
      </trkpt>
      <trkpt lat="48.18727" lon="7.25081">
        <ele>871</ele>
        <time>2014-08-12T13:52:59Z</time>
      </trkpt>
      <trkpt lat="48.1872" lon="7.25073">
        <ele>873</ele>
        <time>2014-08-12T13:53:09Z</time>
      </trkpt>
      <trkpt lat="48.18707" lon="7.25063">
        <ele>875</ele>
        <time>2014-08-12T13:53:21Z</time>
      </trkpt>
      <trkpt lat="48.18704" lon="7.25061">
        <ele>875</ele>
        <time>2014-08-12T13:53:24Z</time>
      </trkpt>
      <trkpt lat="48.1869" lon="7.2506">
        <ele>874</ele>
        <time>2014-08-12T13:53:35Z</time>
      </trkpt>
      <trkpt lat="48.18684" lon="7.25062">
        <ele>873</ele>
        <time>2014-08-12T13:53:46Z</time>
      </trkpt>
      <trkpt lat="48.18673" lon="7.25061">
        <ele>873</ele>
        <time>2014-08-12T13:53:59Z</time>
      </trkpt>
      <trkpt lat="48.18667" lon="7.25059">
        <ele>873</ele>
        <time>2014-08-12T13:54:09Z</time>
      </trkpt>
      <trkpt lat="48.18654" lon="7.25058">
        <ele>875</ele>
        <time>2014-08-12T13:54:21Z</time>
      </trkpt>
      <trkpt lat="48.18641" lon="7.25054">
        <ele>877</ele>
        <time>2014-08-12T13:54:31Z</time>
      </trkpt>
      <trkpt lat="48.18629" lon="7.25052">
        <ele>879</ele>
        <time>2014-08-12T13:54:41Z</time>
      </trkpt>
      <trkpt lat="48.18617" lon="7.25054">
        <ele>879</ele>
        <time>2014-08-12T13:54:51Z</time>
      </trkpt>
      <trkpt lat="48.18606" lon="7.25052">
        <ele>879</ele>
        <time>2014-08-12T13:55:02Z</time>
      </trkpt>
      <trkpt lat="48.18592" lon="7.25052">
        <ele>879</ele>
        <time>2014-08-12T13:55:12Z</time>
      </trkpt>
      <trkpt lat="48.18576" lon="7.25056">
        <ele>886</ele>
        <time>2014-08-12T13:55:24Z</time>
      </trkpt>
      <trkpt lat="48.18573" lon="7.25059">
        <ele>885</ele>
        <time>2014-08-12T13:55:26Z</time>
      </trkpt>
      <trkpt lat="48.18571" lon="7.2506">
        <ele>885</ele>
        <time>2014-08-12T13:55:28Z</time>
      </trkpt>
      <trkpt lat="48.18558" lon="7.25066">
        <ele>886</ele>
        <time>2014-08-12T13:55:39Z</time>
      </trkpt>
      <trkpt lat="48.18555" lon="7.25067">
        <ele>887</ele>
        <time>2014-08-12T13:55:42Z</time>
      </trkpt>
      <trkpt lat="48.18551" lon="7.25068">
        <ele>887</ele>
        <time>2014-08-12T13:56:01Z</time>
      </trkpt>
      <trkpt lat="48.18546" lon="7.25069">
        <ele>888</ele>
        <time>2014-08-12T13:56:13Z</time>
      </trkpt>
      <trkpt lat="48.1854" lon="7.25071">
        <ele>889</ele>
        <time>2014-08-12T13:56:26Z</time>
      </trkpt>
      <trkpt lat="48.18531" lon="7.25074">
        <ele>890</ele>
        <time>2014-08-12T13:56:37Z</time>
      </trkpt>
      <trkpt lat="48.18517" lon="7.25078">
        <ele>890</ele>
        <time>2014-08-12T13:56:48Z</time>
      </trkpt>
      <trkpt lat="48.18501" lon="7.25082">
        <ele>890</ele>
        <time>2014-08-12T13:56:58Z</time>
      </trkpt>
      <trkpt lat="48.18488" lon="7.25084">
        <ele>889</ele>
        <time>2014-08-12T13:57:09Z</time>
      </trkpt>
      <trkpt lat="48.18483" lon="7.25088">
        <ele>889</ele>
        <time>2014-08-12T13:57:32Z</time>
      </trkpt>
      <trkpt lat="48.18488" lon="7.2508">
        <ele>897</ele>
        <time>2014-08-12T13:57:38Z</time>
      </trkpt>
      <trkpt lat="48.18498" lon="7.25066">
        <ele>899</ele>
        <time>2014-08-12T13:57:51Z</time>
      </trkpt>
      <trkpt lat="48.18509" lon="7.25058">
        <ele>892</ele>
        <time>2014-08-12T13:58:02Z</time>
      </trkpt>
      <trkpt lat="48.18521" lon="7.25046">
        <ele>893</ele>
        <time>2014-08-12T13:58:13Z</time>
      </trkpt>
      <trkpt lat="48.18524" lon="7.25033">
        <ele>895</ele>
        <time>2014-08-12T13:58:22Z</time>
      </trkpt>
      <trkpt lat="48.1853" lon="7.2502">
        <ele>897</ele>
        <time>2014-08-12T13:58:32Z</time>
      </trkpt>
      <trkpt lat="48.18541" lon="7.25009">
        <ele>896</ele>
        <time>2014-08-12T13:58:42Z</time>
      </trkpt>
      <trkpt lat="48.18548" lon="7.24994">
        <ele>909</ele>
        <time>2014-08-12T13:58:53Z</time>
      </trkpt>
      <trkpt lat="48.18556" lon="7.24984">
        <ele>909</ele>
        <time>2014-08-12T13:59:03Z</time>
      </trkpt>
      <trkpt lat="48.18565" lon="7.24979">
        <ele>908</ele>
        <time>2014-08-12T13:59:10Z</time>
      </trkpt>
      <trkpt lat="48.18574" lon="7.24964">
        <ele>910</ele>
        <time>2014-08-12T13:59:21Z</time>
      </trkpt>
      <trkpt lat="48.18584" lon="7.24959">
        <ele>908</ele>
        <time>2014-08-12T13:59:27Z</time>
      </trkpt>
      <trkpt lat="48.18596" lon="7.24946">
        <ele>910</ele>
        <time>2014-08-12T13:59:39Z</time>
      </trkpt>
      <trkpt lat="48.18599" lon="7.24944">
        <ele>910</ele>
        <time>2014-08-12T13:59:41Z</time>
      </trkpt>
      <trkpt lat="48.18612" lon="7.2494">
        <ele>910</ele>
        <time>2014-08-12T13:59:49Z</time>
      </trkpt>
      <trkpt lat="48.18623" lon="7.24936">
        <ele>911</ele>
        <time>2014-08-12T13:59:59Z</time>
      </trkpt>
      <trkpt lat="48.18625" lon="7.24932">
        <ele>911</ele>
        <time>2014-08-12T14:00:07Z</time>
      </trkpt>
      <trkpt lat="48.18631" lon="7.24927">
        <ele>912</ele>
        <time>2014-08-12T14:00:17Z</time>
      </trkpt>
      <trkpt lat="48.18636" lon="7.24917">
        <ele>913</ele>
        <time>2014-08-12T14:00:28Z</time>
      </trkpt>
      <trkpt lat="48.18651" lon="7.24904">
        <ele>925</ele>
        <time>2014-08-12T14:00:38Z</time>
      </trkpt>
      <trkpt lat="48.18664" lon="7.24898">
        <ele>925</ele>
        <time>2014-08-12T14:00:47Z</time>
      </trkpt>
      <trkpt lat="48.18672" lon="7.24894">
        <ele>928</ele>
        <time>2014-08-12T14:00:54Z</time>
      </trkpt>
      <trkpt lat="48.18678" lon="7.24895">
        <ele>928</ele>
        <time>2014-08-12T14:01:04Z</time>
      </trkpt>
      <trkpt lat="48.18684" lon="7.24888">
        <ele>930</ele>
        <time>2014-08-12T14:01:14Z</time>
      </trkpt>
      <trkpt lat="48.1869" lon="7.24886">
        <ele>930</ele>
        <time>2014-08-12T14:01:30Z</time>
      </trkpt>
      <trkpt lat="48.18716" lon="7.24877">
        <ele>932</ele>
        <time>2014-08-12T14:01:40Z</time>
      </trkpt>
      <trkpt lat="48.1872" lon="7.24877">
        <ele>932</ele>
        <time>2014-08-12T14:01:43Z</time>
      </trkpt>
      <trkpt lat="48.18721" lon="7.24877">
        <ele>932</ele>
        <time>2014-08-12T14:04:06Z</time>
      </trkpt>
      <trkpt lat="48.18725" lon="7.24877">
        <ele>932</ele>
        <time>2014-08-12T14:05:41Z</time>
      </trkpt>
      <trkpt lat="48.18742" lon="7.24867">
        <ele>934</ele>
        <time>2014-08-12T14:05:52Z</time>
      </trkpt>
      <trkpt lat="48.18749" lon="7.24862">
        <ele>934</ele>
        <time>2014-08-12T14:05:56Z</time>
      </trkpt>
      <trkpt lat="48.18754" lon="7.24862">
        <ele>936</ele>
        <time>2014-08-12T14:05:58Z</time>
      </trkpt>
      <trkpt lat="48.18772" lon="7.24862">
        <ele>936</ele>
        <time>2014-08-12T14:06:08Z</time>
      </trkpt>
      <trkpt lat="48.18775" lon="7.24862">
        <ele>936</ele>
        <time>2014-08-12T14:06:10Z</time>
      </trkpt>
      <trkpt lat="48.18784" lon="7.2486">
        <ele>936</ele>
        <time>2014-08-12T14:06:21Z</time>
      </trkpt>
      <trkpt lat="48.18791" lon="7.24861">
        <ele>936</ele>
        <time>2014-08-12T14:06:34Z</time>
      </trkpt>
      <trkpt lat="48.18813" lon="7.24861">
        <ele>936</ele>
        <time>2014-08-12T14:06:44Z</time>
      </trkpt>
      <trkpt lat="48.18827" lon="7.24864">
        <ele>936</ele>
        <time>2014-08-12T14:06:59Z</time>
      </trkpt>
      <trkpt lat="48.18848" lon="7.24867">
        <ele>936</ele>
        <time>2014-08-12T14:07:09Z</time>
      </trkpt>
      <trkpt lat="48.1886" lon="7.24868">
        <ele>936</ele>
        <time>2014-08-12T14:07:20Z</time>
      </trkpt>
      <trkpt lat="48.1886" lon="7.24872">
        <ele>936</ele>
        <time>2014-08-12T14:07:26Z</time>
      </trkpt>
      <trkpt lat="48.18863" lon="7.24875">
        <ele>936</ele>
        <time>2014-08-12T14:07:28Z</time>
      </trkpt>
      <trkpt lat="48.18867" lon="7.2488">
        <ele>936</ele>
        <time>2014-08-12T14:08:42Z</time>
      </trkpt>
      <trkpt lat="48.18865" lon="7.24878">
        <ele>936</ele>
        <time>2014-08-12T14:09:34Z</time>
      </trkpt>
      <trkpt lat="48.18865" lon="7.24872">
        <ele>936</ele>
        <time>2014-08-12T14:09:55Z</time>
      </trkpt>
      <trkpt lat="48.18866" lon="7.24877">
        <ele>936</ele>
        <time>2014-08-12T14:24:55Z</time>
      </trkpt>
      <trkpt lat="48.18863" lon="7.24876">
        <ele>936</ele>
        <time>2014-08-12T14:25:13Z</time>
      </trkpt>
      <trkpt lat="48.18861" lon="7.24874">
        <ele>936</ele>
        <time>2014-08-12T14:25:23Z</time>
      </trkpt>
      <trkpt lat="48.18864" lon="7.24873">
        <ele>936</ele>
        <time>2014-08-12T14:25:43Z</time>
      </trkpt>
      <trkpt lat="48.18875" lon="7.24872">
        <ele>936</ele>
        <time>2014-08-12T14:25:55Z</time>
      </trkpt>
      <trkpt lat="48.18877" lon="7.24867">
        <ele>936</ele>
        <time>2014-08-12T14:26:03Z</time>
      </trkpt>
      <trkpt lat="48.1888" lon="7.24855">
        <ele>937</ele>
        <time>2014-08-12T14:26:13Z</time>
      </trkpt>
      <trkpt lat="48.18881" lon="7.24842">
        <ele>937</ele>
        <time>2014-08-12T14:26:24Z</time>
      </trkpt>
      <trkpt lat="48.18882" lon="7.24837">
        <ele>937</ele>
        <time>2014-08-12T14:26:26Z</time>
      </trkpt>
      <trkpt lat="48.18884" lon="7.24832">
        <ele>938</ele>
        <time>2014-08-12T14:26:28Z</time>
      </trkpt>
      <trkpt lat="48.18887" lon="7.24829">
        <ele>938</ele>
        <time>2014-08-12T14:26:30Z</time>
      </trkpt>
      <trkpt lat="48.18889" lon="7.24825">
        <ele>938</ele>
        <time>2014-08-12T14:26:33Z</time>
      </trkpt>
      <trkpt lat="48.18892" lon="7.24818">
        <ele>938</ele>
        <time>2014-08-12T14:26:45Z</time>
      </trkpt>
      <trkpt lat="48.18895" lon="7.24816">
        <ele>938</ele>
        <time>2014-08-12T14:26:55Z</time>
      </trkpt>
      <trkpt lat="48.18899" lon="7.24804">
        <ele>938</ele>
        <time>2014-08-12T14:27:09Z</time>
      </trkpt>
      <trkpt lat="48.18908" lon="7.2479">
        <ele>938</ele>
        <time>2014-08-12T14:27:19Z</time>
      </trkpt>
      <trkpt lat="48.18917" lon="7.24762">
        <ele>934</ele>
        <time>2014-08-12T14:27:29Z</time>
      </trkpt>
      <trkpt lat="48.18921" lon="7.24745">
        <ele>936</ele>
        <time>2014-08-12T14:27:37Z</time>
      </trkpt>
      <trkpt lat="48.18921" lon="7.24741">
        <ele>935</ele>
        <time>2014-08-12T14:27:39Z</time>
      </trkpt>
      <trkpt lat="48.18919" lon="7.24732">
        <ele>934</ele>
        <time>2014-08-12T14:27:43Z</time>
      </trkpt>
      <trkpt lat="48.18922" lon="7.24709">
        <ele>932</ele>
        <time>2014-08-12T14:27:53Z</time>
      </trkpt>
      <trkpt lat="48.1892" lon="7.24704">
        <ele>932</ele>
        <time>2014-08-12T14:27:55Z</time>
      </trkpt>
      <trkpt lat="48.18915" lon="7.24681">
        <ele>937</ele>
        <time>2014-08-12T14:28:05Z</time>
      </trkpt>
      <trkpt lat="48.18914" lon="7.24672">
        <ele>938</ele>
        <time>2014-08-12T14:28:09Z</time>
      </trkpt>
      <trkpt lat="48.18913" lon="7.24648">
        <ele>937</ele>
        <time>2014-08-12T14:28:19Z</time>
      </trkpt>
      <trkpt lat="48.18913" lon="7.24642">
        <ele>936</ele>
        <time>2014-08-12T14:28:21Z</time>
      </trkpt>
      <trkpt lat="48.18913" lon="7.24633">
        <ele>936</ele>
        <time>2014-08-12T14:28:27Z</time>
      </trkpt>
      <trkpt lat="48.18912" lon="7.2462">
        <ele>936</ele>
        <time>2014-08-12T14:28:37Z</time>
      </trkpt>
      <trkpt lat="48.18911" lon="7.24615">
        <ele>936</ele>
        <time>2014-08-12T14:28:40Z</time>
      </trkpt>
      <trkpt lat="48.18909" lon="7.24593">
        <ele>936</ele>
        <time>2014-08-12T14:28:50Z</time>
      </trkpt>
      <trkpt lat="48.18908" lon="7.24581">
        <ele>935</ele>
        <time>2014-08-12T14:28:54Z</time>
      </trkpt>
      <trkpt lat="48.18908" lon="7.24556">
        <ele>933</ele>
        <time>2014-08-12T14:29:04Z</time>
      </trkpt>
      <trkpt lat="48.18907" lon="7.24551">
        <ele>932</ele>
        <time>2014-08-12T14:29:06Z</time>
      </trkpt>
      <trkpt lat="48.18906" lon="7.24547">
        <ele>932</ele>
        <time>2014-08-12T14:29:10Z</time>
      </trkpt>
      <trkpt lat="48.18906" lon="7.24539">
        <ele>932</ele>
        <time>2014-08-12T14:29:17Z</time>
      </trkpt>
      <trkpt lat="48.18907" lon="7.2453">
        <ele>931</ele>
        <time>2014-08-12T14:29:21Z</time>
      </trkpt>
      <trkpt lat="48.18905" lon="7.24509">
        <ele>930</ele>
        <time>2014-08-12T14:29:32Z</time>
      </trkpt>
      <trkpt lat="48.18905" lon="7.24496">
        <ele>928</ele>
        <time>2014-08-12T14:29:36Z</time>
      </trkpt>
      <trkpt lat="48.18906" lon="7.24478">
        <ele>927</ele>
        <time>2014-08-12T14:29:47Z</time>
      </trkpt>
      <trkpt lat="48.18905" lon="7.24455">
        <ele>925</ele>
        <time>2014-08-12T14:29:59Z</time>
      </trkpt>
      <trkpt lat="48.18902" lon="7.24435">
        <ele>924</ele>
        <time>2014-08-12T14:30:11Z</time>
      </trkpt>
      <trkpt lat="48.18902" lon="7.24431">
        <ele>924</ele>
        <time>2014-08-12T14:30:13Z</time>
      </trkpt>
      <trkpt lat="48.18902" lon="7.24426">
        <ele>924</ele>
        <time>2014-08-12T14:30:15Z</time>
      </trkpt>
      <trkpt lat="48.18901" lon="7.24408">
        <ele>921</ele>
        <time>2014-08-12T14:30:26Z</time>
      </trkpt>
      <trkpt lat="48.189" lon="7.24374">
        <ele>919</ele>
        <time>2014-08-12T14:30:40Z</time>
      </trkpt>
      <trkpt lat="48.18902" lon="7.24351">
        <ele>918</ele>
        <time>2014-08-12T14:30:52Z</time>
      </trkpt>
      <trkpt lat="48.18899" lon="7.24344">
        <ele>918</ele>
        <time>2014-08-12T14:30:59Z</time>
      </trkpt>
      <trkpt lat="48.18897" lon="7.24329">
        <ele>914</ele>
        <time>2014-08-12T14:31:09Z</time>
      </trkpt>
      <trkpt lat="48.18897" lon="7.24324">
        <ele>914</ele>
        <time>2014-08-12T14:31:12Z</time>
      </trkpt>
      <trkpt lat="48.18899" lon="7.24301">
        <ele>913</ele>
        <time>2014-08-12T14:31:22Z</time>
      </trkpt>
      <trkpt lat="48.18899" lon="7.2428">
        <ele>912</ele>
        <time>2014-08-12T14:31:31Z</time>
      </trkpt>
      <trkpt lat="48.18896" lon="7.24255">
        <ele>911</ele>
        <time>2014-08-12T14:31:42Z</time>
      </trkpt>
      <trkpt lat="48.18897" lon="7.24237">
        <ele>907</ele>
        <time>2014-08-12T14:31:53Z</time>
      </trkpt>
      <trkpt lat="48.18897" lon="7.24223">
        <ele>907</ele>
        <time>2014-08-12T14:32:03Z</time>
      </trkpt>
      <trkpt lat="48.18897" lon="7.24205">
        <ele>906</ele>
        <time>2014-08-12T14:32:13Z</time>
      </trkpt>
      <trkpt lat="48.18896" lon="7.24196">
        <ele>906</ele>
        <time>2014-08-12T14:32:18Z</time>
      </trkpt>
      <trkpt lat="48.18892" lon="7.24182">
        <ele>906</ele>
        <time>2014-08-12T14:32:29Z</time>
      </trkpt>
      <trkpt lat="48.18889" lon="7.24164">
        <ele>903</ele>
        <time>2014-08-12T14:32:39Z</time>
      </trkpt>
      <trkpt lat="48.18888" lon="7.24155">
        <ele>903</ele>
        <time>2014-08-12T14:32:52Z</time>
      </trkpt>
      <trkpt lat="48.1889" lon="7.24143">
        <ele>902</ele>
        <time>2014-08-12T14:32:59Z</time>
      </trkpt>
      <trkpt lat="48.18887" lon="7.24115">
        <ele>902</ele>
        <time>2014-08-12T14:33:10Z</time>
      </trkpt>
      <trkpt lat="48.18889" lon="7.24111">
        <ele>902</ele>
        <time>2014-08-12T14:33:12Z</time>
      </trkpt>
      <trkpt lat="48.18892" lon="7.24097">
        <ele>902</ele>
        <time>2014-08-12T14:33:22Z</time>
      </trkpt>
      <trkpt lat="48.18891" lon="7.24092">
        <ele>902</ele>
        <time>2014-08-12T14:33:25Z</time>
      </trkpt>
      <trkpt lat="48.18888" lon="7.24083">
        <ele>901</ele>
        <time>2014-08-12T14:33:29Z</time>
      </trkpt>
      <trkpt lat="48.18884" lon="7.24057">
        <ele>900</ele>
        <time>2014-08-12T14:33:39Z</time>
      </trkpt>
      <trkpt lat="48.18882" lon="7.24051">
        <ele>899</ele>
        <time>2014-08-12T14:33:41Z</time>
      </trkpt>
      <trkpt lat="48.18881" lon="7.24046">
        <ele>899</ele>
        <time>2014-08-12T14:33:43Z</time>
      </trkpt>
      <trkpt lat="48.18879" lon="7.24025">
        <ele>899</ele>
        <time>2014-08-12T14:33:54Z</time>
      </trkpt>
      <trkpt lat="48.18878" lon="7.24017">
        <ele>899</ele>
        <time>2014-08-12T14:34:00Z</time>
      </trkpt>
      <trkpt lat="48.18874" lon="7.23994">
        <ele>897</ele>
        <time>2014-08-12T14:34:11Z</time>
      </trkpt>
      <trkpt lat="48.18871" lon="7.23971">
        <ele>896</ele>
        <time>2014-08-12T14:34:23Z</time>
      </trkpt>
      <trkpt lat="48.1887" lon="7.23961">
        <ele>896</ele>
        <time>2014-08-12T14:34:27Z</time>
      </trkpt>
      <trkpt lat="48.18866" lon="7.23944">
        <ele>895</ele>
        <time>2014-08-12T14:34:37Z</time>
      </trkpt>
      <trkpt lat="48.18868" lon="7.23926">
        <ele>895</ele>
        <time>2014-08-12T14:34:50Z</time>
      </trkpt>
      <trkpt lat="48.18868" lon="7.23921">
        <ele>895</ele>
        <time>2014-08-12T14:34:55Z</time>
      </trkpt>
      <trkpt lat="48.18866" lon="7.23904">
        <ele>892</ele>
        <time>2014-08-12T14:35:09Z</time>
      </trkpt>
      <trkpt lat="48.18865" lon="7.23883">
        <ele>892</ele>
        <time>2014-08-12T14:35:20Z</time>
      </trkpt>
      <trkpt lat="48.18865" lon="7.23867">
        <ele>891</ele>
        <time>2014-08-12T14:35:31Z</time>
      </trkpt>
      <trkpt lat="48.18867" lon="7.23847">
        <ele>891</ele>
        <time>2014-08-12T14:35:39Z</time>
      </trkpt>
      <trkpt lat="48.18866" lon="7.23842">
        <ele>891</ele>
        <time>2014-08-12T14:35:46Z</time>
      </trkpt>
      <trkpt lat="48.1886" lon="7.23838">
        <ele>890</ele>
        <time>2014-08-12T14:36:06Z</time>
      </trkpt>
      <trkpt lat="48.1886" lon="7.23834">
        <ele>890</ele>
        <time>2014-08-12T14:36:38Z</time>
      </trkpt>
      <trkpt lat="48.18856" lon="7.23822">
        <ele>888</ele>
        <time>2014-08-12T14:36:49Z</time>
      </trkpt>
      <trkpt lat="48.18854" lon="7.23814">
        <ele>888</ele>
        <time>2014-08-12T14:37:21Z</time>
      </trkpt>
      <trkpt lat="48.18855" lon="7.23808">
        <ele>888</ele>
        <time>2014-08-12T14:37:24Z</time>
      </trkpt>
      <trkpt lat="48.18856" lon="7.23798">
        <ele>888</ele>
        <time>2014-08-12T14:37:51Z</time>
      </trkpt>
      <trkpt lat="48.18853" lon="7.23794">
        <ele>888</ele>
        <time>2014-08-12T14:37:53Z</time>
      </trkpt>
      <trkpt lat="48.18849" lon="7.23783">
        <ele>888</ele>
        <time>2014-08-12T14:38:00Z</time>
      </trkpt>
      <trkpt lat="48.18846" lon="7.23774">
        <ele>888</ele>
        <time>2014-08-12T14:38:11Z</time>
      </trkpt>
      <trkpt lat="48.18842" lon="7.2376">
        <ele>888</ele>
        <time>2014-08-12T14:38:23Z</time>
      </trkpt>
      <trkpt lat="48.18839" lon="7.23752">
        <ele>888</ele>
        <time>2014-08-12T14:38:35Z</time>
      </trkpt>
      <trkpt lat="48.18839" lon="7.23747">
        <ele>887</ele>
        <time>2014-08-12T14:38:40Z</time>
      </trkpt>
      <trkpt lat="48.18836" lon="7.23733">
        <ele>886</ele>
        <time>2014-08-12T14:38:51Z</time>
      </trkpt>
      <trkpt lat="48.18837" lon="7.23729">
        <ele>886</ele>
        <time>2014-08-12T14:38:53Z</time>
      </trkpt>
      <trkpt lat="48.18836" lon="7.23712">
        <ele>885</ele>
        <time>2014-08-12T14:39:06Z</time>
      </trkpt>
      <trkpt lat="48.18838" lon="7.23692">
        <ele>885</ele>
        <time>2014-08-12T14:39:18Z</time>
      </trkpt>
      <trkpt lat="48.18841" lon="7.23683">
        <ele>885</ele>
        <time>2014-08-12T14:39:22Z</time>
      </trkpt>
      <trkpt lat="48.18842" lon="7.23679">
        <ele>885</ele>
        <time>2014-08-12T14:39:23Z</time>
      </trkpt>
      <trkpt lat="48.18844" lon="7.23674">
        <ele>885</ele>
        <time>2014-08-12T14:39:25Z</time>
      </trkpt>
      <trkpt lat="48.18844" lon="7.23666">
        <ele>884</ele>
        <time>2014-08-12T14:39:35Z</time>
      </trkpt>
      <trkpt lat="48.18839" lon="7.23652">
        <ele>884</ele>
        <time>2014-08-12T14:39:45Z</time>
      </trkpt>
      <trkpt lat="48.18836" lon="7.23638">
        <ele>882</ele>
        <time>2014-08-12T14:39:55Z</time>
      </trkpt>
      <trkpt lat="48.18834" lon="7.23621">
        <ele>882</ele>
        <time>2014-08-12T14:40:06Z</time>
      </trkpt>
      <trkpt lat="48.18835" lon="7.23616">
        <ele>882</ele>
        <time>2014-08-12T14:40:08Z</time>
      </trkpt>
      <trkpt lat="48.18836" lon="7.23612">
        <ele>882</ele>
        <time>2014-08-12T14:40:11Z</time>
      </trkpt>
      <trkpt lat="48.18837" lon="7.23604">
        <ele>883</ele>
        <time>2014-08-12T14:41:02Z</time>
      </trkpt>
      <trkpt lat="48.18834" lon="7.2358">
        <ele>885</ele>
        <time>2014-08-12T14:41:12Z</time>
      </trkpt>
      <trkpt lat="48.1884" lon="7.23565">
        <ele>882</ele>
        <time>2014-08-12T14:41:20Z</time>
      </trkpt>
      <trkpt lat="48.1884" lon="7.23552">
        <ele>881</ele>
        <time>2014-08-12T14:41:30Z</time>
      </trkpt>
      <trkpt lat="48.18842" lon="7.23532">
        <ele>881</ele>
        <time>2014-08-12T14:41:41Z</time>
      </trkpt>
      <trkpt lat="48.1884" lon="7.23512">
        <ele>883</ele>
        <time>2014-08-12T14:41:51Z</time>
      </trkpt>
      <trkpt lat="48.1884" lon="7.23489">
        <ele>885</ele>
        <time>2014-08-12T14:42:01Z</time>
      </trkpt>
      <trkpt lat="48.18841" lon="7.23484">
        <ele>885</ele>
        <time>2014-08-12T14:42:03Z</time>
      </trkpt>
      <trkpt lat="48.1884" lon="7.2348">
        <ele>885</ele>
        <time>2014-08-12T14:42:04Z</time>
      </trkpt>
      <trkpt lat="48.18839" lon="7.23474">
        <ele>885</ele>
        <time>2014-08-12T14:42:06Z</time>
      </trkpt>
      <trkpt lat="48.1884" lon="7.2347">
        <ele>885</ele>
        <time>2014-08-12T14:42:09Z</time>
      </trkpt>
      <trkpt lat="48.18841" lon="7.23458">
        <ele>885</ele>
        <time>2014-08-12T14:42:31Z</time>
      </trkpt>
      <trkpt lat="48.1884" lon="7.23438">
        <ele>887</ele>
        <time>2014-08-12T14:42:41Z</time>
      </trkpt>
      <trkpt lat="48.18841" lon="7.23432">
        <ele>887</ele>
        <time>2014-08-12T14:42:44Z</time>
      </trkpt>
      <trkpt lat="48.18842" lon="7.23411">
        <ele>892</ele>
        <time>2014-08-12T14:42:53Z</time>
      </trkpt>
      <trkpt lat="48.18841" lon="7.23398">
        <ele>893</ele>
        <time>2014-08-12T14:42:59Z</time>
      </trkpt>
      <trkpt lat="48.18841" lon="7.23385">
        <ele>894</ele>
        <time>2014-08-12T14:43:10Z</time>
      </trkpt>
      <trkpt lat="48.18841" lon="7.2337">
        <ele>895</ele>
        <time>2014-08-12T14:43:21Z</time>
      </trkpt>
      <trkpt lat="48.1884" lon="7.23365">
        <ele>895</ele>
        <time>2014-08-12T14:43:22Z</time>
      </trkpt>
      <trkpt lat="48.18839" lon="7.23354">
        <ele>895</ele>
        <time>2014-08-12T14:43:34Z</time>
      </trkpt>
      <trkpt lat="48.18842" lon="7.23351">
        <ele>895</ele>
        <time>2014-08-12T14:43:47Z</time>
      </trkpt>
      <trkpt lat="48.1885" lon="7.23335">
        <ele>896</ele>
        <time>2014-08-12T14:43:59Z</time>
      </trkpt>
      <trkpt lat="48.18857" lon="7.23322">
        <ele>902</ele>
        <time>2014-08-12T14:44:10Z</time>
      </trkpt>
      <trkpt lat="48.18868" lon="7.23314">
        <ele>904</ele>
        <time>2014-08-12T14:44:22Z</time>
      </trkpt>
      <trkpt lat="48.18869" lon="7.23309">
        <ele>905</ele>
        <time>2014-08-12T14:44:30Z</time>
      </trkpt>
      <trkpt lat="48.1887" lon="7.233">
        <ele>905</ele>
        <time>2014-08-12T14:44:40Z</time>
      </trkpt>
      <trkpt lat="48.1887" lon="7.23296">
        <ele>905</ele>
        <time>2014-08-12T14:44:42Z</time>
      </trkpt>
      <trkpt lat="48.18876" lon="7.23277">
        <ele>907</ele>
        <time>2014-08-12T14:44:53Z</time>
      </trkpt>
      <trkpt lat="48.1888" lon="7.23265">
        <ele>908</ele>
        <time>2014-08-12T14:45:05Z</time>
      </trkpt>
      <trkpt lat="48.18885" lon="7.23246">
        <ele>913</ele>
        <time>2014-08-12T14:45:13Z</time>
      </trkpt>
      <trkpt lat="48.18886" lon="7.23237">
        <ele>913</ele>
        <time>2014-08-12T14:45:19Z</time>
      </trkpt>
      <trkpt lat="48.18883" lon="7.23219">
        <ele>912</ele>
        <time>2014-08-12T14:45:30Z</time>
      </trkpt>
      <trkpt lat="48.18883" lon="7.23214">
        <ele>912</ele>
        <time>2014-08-12T14:45:33Z</time>
      </trkpt>
      <trkpt lat="48.1888" lon="7.23206">
        <ele>912</ele>
        <time>2014-08-12T14:45:43Z</time>
      </trkpt>
      <trkpt lat="48.18876" lon="7.232">
        <ele>912</ele>
        <time>2014-08-12T14:46:07Z</time>
      </trkpt>
      <trkpt lat="48.18871" lon="7.23188">
        <ele>912</ele>
        <time>2014-08-12T14:46:18Z</time>
      </trkpt>
      <trkpt lat="48.1887" lon="7.23184">
        <ele>912</ele>
        <time>2014-08-12T14:46:20Z</time>
      </trkpt>
      <trkpt lat="48.18867" lon="7.23176">
        <ele>912</ele>
        <time>2014-08-12T14:46:30Z</time>
      </trkpt>
      <trkpt lat="48.18859" lon="7.23157">
        <ele>911</ele>
        <time>2014-08-12T14:46:41Z</time>
      </trkpt>
      <trkpt lat="48.18852" lon="7.23141">
        <ele>911</ele>
        <time>2014-08-12T14:46:51Z</time>
      </trkpt>
      <trkpt lat="48.18843" lon="7.23118">
        <ele>911</ele>
        <time>2014-08-12T14:47:00Z</time>
      </trkpt>
      <trkpt lat="48.18838" lon="7.23105">
        <ele>911</ele>
        <time>2014-08-12T14:47:09Z</time>
      </trkpt>
      <trkpt lat="48.18836" lon="7.23099">
        <ele>910</ele>
        <time>2014-08-12T14:47:29Z</time>
      </trkpt>
      <trkpt lat="48.18829" lon="7.23073">
        <ele>904</ele>
        <time>2014-08-12T14:47:39Z</time>
      </trkpt>
      <trkpt lat="48.18826" lon="7.23063">
        <ele>901</ele>
        <time>2014-08-12T14:47:43Z</time>
      </trkpt>
      <trkpt lat="48.18824" lon="7.23058">
        <ele>900</ele>
        <time>2014-08-12T14:47:45Z</time>
      </trkpt>
      <trkpt lat="48.18821" lon="7.23054">
        <ele>900</ele>
        <time>2014-08-12T14:47:47Z</time>
      </trkpt>
      <trkpt lat="48.18816" lon="7.23043">
        <ele>899</ele>
        <time>2014-08-12T14:48:07Z</time>
      </trkpt>
      <trkpt lat="48.18806" lon="7.23021">
        <ele>899</ele>
        <time>2014-08-12T14:48:17Z</time>
      </trkpt>
      <trkpt lat="48.18799" lon="7.23004">
        <ele>898</ele>
        <time>2014-08-12T14:48:25Z</time>
      </trkpt>
      <trkpt lat="48.18795" lon="7.22994">
        <ele>901</ele>
        <time>2014-08-12T14:48:39Z</time>
      </trkpt>
      <trkpt lat="48.18783" lon="7.22965">
        <ele>900</ele>
        <time>2014-08-12T14:48:49Z</time>
      </trkpt>
      <trkpt lat="48.18777" lon="7.2294">
        <ele>900</ele>
        <time>2014-08-12T14:48:58Z</time>
      </trkpt>
      <trkpt lat="48.18776" lon="7.22932">
        <ele>900</ele>
        <time>2014-08-12T14:49:03Z</time>
      </trkpt>
      <trkpt lat="48.18775" lon="7.22927">
        <ele>900</ele>
        <time>2014-08-12T14:49:13Z</time>
      </trkpt>
      <trkpt lat="48.18769" lon="7.22902">
        <ele>902</ele>
        <time>2014-08-12T14:49:24Z</time>
      </trkpt>
      <trkpt lat="48.18758" lon="7.22876">
        <ele>903</ele>
        <time>2014-08-12T14:49:34Z</time>
      </trkpt>
      <trkpt lat="48.18756" lon="7.22871">
        <ele>903</ele>
        <time>2014-08-12T14:49:36Z</time>
      </trkpt>
      <trkpt lat="48.18752" lon="7.22858">
        <ele>903</ele>
        <time>2014-08-12T14:49:41Z</time>
      </trkpt>
      <trkpt lat="48.18747" lon="7.22847">
        <ele>895</ele>
        <time>2014-08-12T14:49:53Z</time>
      </trkpt>
      <trkpt lat="48.18744" lon="7.22841">
        <ele>897</ele>
        <time>2014-08-12T14:50:03Z</time>
      </trkpt>
      <trkpt lat="48.18731" lon="7.22822">
        <ele>896</ele>
        <time>2014-08-12T14:50:13Z</time>
      </trkpt>
      <trkpt lat="48.18725" lon="7.2281">
        <ele>895</ele>
        <time>2014-08-12T14:50:28Z</time>
      </trkpt>
      <trkpt lat="48.18707" lon="7.22777">
        <ele>893</ele>
        <time>2014-08-12T14:50:38Z</time>
      </trkpt>
      <trkpt lat="48.18699" lon="7.2276">
        <ele>893</ele>
        <time>2014-08-12T14:50:46Z</time>
      </trkpt>
      <trkpt lat="48.18698" lon="7.22756">
        <ele>893</ele>
        <time>2014-08-12T14:50:48Z</time>
      </trkpt>
      <trkpt lat="48.18693" lon="7.22737">
        <ele>895</ele>
        <time>2014-08-12T14:50:59Z</time>
      </trkpt>
      <trkpt lat="48.18684" lon="7.22721">
        <ele>896</ele>
        <time>2014-08-12T14:51:10Z</time>
      </trkpt>
      <trkpt lat="48.18678" lon="7.22705">
        <ele>897</ele>
        <time>2014-08-12T14:51:23Z</time>
      </trkpt>
      <trkpt lat="48.18675" lon="7.22698">
        <ele>897</ele>
        <time>2014-08-12T14:51:37Z</time>
      </trkpt>
      <trkpt lat="48.18673" lon="7.22694">
        <ele>897</ele>
        <time>2014-08-12T14:51:39Z</time>
      </trkpt>
      <trkpt lat="48.18659" lon="7.22672">
        <ele>896</ele>
        <time>2014-08-12T14:51:49Z</time>
      </trkpt>
      <trkpt lat="48.18651" lon="7.22657">
        <ele>896</ele>
        <time>2014-08-12T14:52:00Z</time>
      </trkpt>
      <trkpt lat="48.18643" lon="7.2264">
        <ele>893</ele>
        <time>2014-08-12T14:52:11Z</time>
      </trkpt>
      <trkpt lat="48.1864" lon="7.2263">
        <ele>893</ele>
        <time>2014-08-12T14:52:22Z</time>
      </trkpt>
      <trkpt lat="48.1863" lon="7.2261">
        <ele>892</ele>
        <time>2014-08-12T14:52:34Z</time>
      </trkpt>
      <trkpt lat="48.18621" lon="7.22592">
        <ele>891</ele>
        <time>2014-08-12T14:52:46Z</time>
      </trkpt>
      <trkpt lat="48.18617" lon="7.22581">
        <ele>889</ele>
        <time>2014-08-12T14:53:04Z</time>
      </trkpt>
      <trkpt lat="48.18613" lon="7.22574">
        <ele>889</ele>
        <time>2014-08-12T14:53:14Z</time>
      </trkpt>
      <trkpt lat="48.18611" lon="7.22571">
        <ele>889</ele>
        <time>2014-08-12T14:56:22Z</time>
      </trkpt>
      <trkpt lat="48.18611" lon="7.22563">
        <ele>888</ele>
        <time>2014-08-12T14:56:38Z</time>
      </trkpt>
      <trkpt lat="48.1861" lon="7.22558">
        <ele>888</ele>
        <time>2014-08-12T14:56:56Z</time>
      </trkpt>
      <trkpt lat="48.18608" lon="7.22554">
        <ele>888</ele>
        <time>2014-08-12T14:57:09Z</time>
      </trkpt>
      <trkpt lat="48.18603" lon="7.22537">
        <ele>888</ele>
        <time>2014-08-12T14:57:19Z</time>
      </trkpt>
      <trkpt lat="48.18598" lon="7.2253">
        <ele>887</ele>
        <time>2014-08-12T14:57:29Z</time>
      </trkpt>
      <trkpt lat="48.18597" lon="7.22516">
        <ele>887</ele>
        <time>2014-08-12T14:57:42Z</time>
      </trkpt>
      <trkpt lat="48.18594" lon="7.22508">
        <ele>887</ele>
        <time>2014-08-12T14:57:47Z</time>
      </trkpt>
      <trkpt lat="48.18587" lon="7.22491">
        <ele>884</ele>
        <time>2014-08-12T14:57:55Z</time>
      </trkpt>
      <trkpt lat="48.18586" lon="7.22481">
        <ele>883</ele>
        <time>2014-08-12T14:57:59Z</time>
      </trkpt>
      <trkpt lat="48.18585" lon="7.22475">
        <ele>882</ele>
        <time>2014-08-12T14:58:04Z</time>
      </trkpt>
      <trkpt lat="48.1858" lon="7.22463">
        <ele>877</ele>
        <time>2014-08-12T14:58:14Z</time>
      </trkpt>
      <trkpt lat="48.18577" lon="7.22455">
        <ele>876</ele>
        <time>2014-08-12T14:58:25Z</time>
      </trkpt>
      <trkpt lat="48.18573" lon="7.22442">
        <ele>876</ele>
        <time>2014-08-12T14:58:36Z</time>
      </trkpt>
      <trkpt lat="48.18572" lon="7.22431">
        <ele>877</ele>
        <time>2014-08-12T14:58:51Z</time>
      </trkpt>
      <trkpt lat="48.18571" lon="7.22428">
        <ele>877</ele>
        <time>2014-08-12T14:58:53Z</time>
      </trkpt>
      <trkpt lat="48.18567" lon="7.22422">
        <ele>877</ele>
        <time>2014-08-12T14:58:56Z</time>
      </trkpt>
      <trkpt lat="48.18562" lon="7.22411">
        <ele>876</ele>
        <time>2014-08-12T14:59:09Z</time>
      </trkpt>
      <trkpt lat="48.1856" lon="7.22406">
        <ele>875</ele>
        <time>2014-08-12T14:59:12Z</time>
      </trkpt>
      <trkpt lat="48.18558" lon="7.22401">
        <ele>874</ele>
        <time>2014-08-12T14:59:16Z</time>
      </trkpt>
      <trkpt lat="48.18548" lon="7.22384">
        <ele>873</ele>
        <time>2014-08-12T14:59:28Z</time>
      </trkpt>
      <trkpt lat="48.18544" lon="7.22369">
        <ele>872</ele>
        <time>2014-08-12T14:59:37Z</time>
      </trkpt>
      <trkpt lat="48.18543" lon="7.22366">
        <ele>872</ele>
        <time>2014-08-12T14:59:39Z</time>
      </trkpt>
      <trkpt lat="48.18534" lon="7.22349">
        <ele>872</ele>
        <time>2014-08-12T14:59:51Z</time>
      </trkpt>
      <trkpt lat="48.18525" lon="7.22333">
        <ele>870</ele>
        <time>2014-08-12T14:59:58Z</time>
      </trkpt>
      <trkpt lat="48.18523" lon="7.22328">
        <ele>870</ele>
        <time>2014-08-12T15:00:01Z</time>
      </trkpt>
      <trkpt lat="48.18515" lon="7.22311">
        <ele>870</ele>
        <time>2014-08-12T15:00:11Z</time>
      </trkpt>
      <trkpt lat="48.18501" lon="7.22287">
        <ele>870</ele>
        <time>2014-08-12T15:00:23Z</time>
      </trkpt>
      <trkpt lat="48.185" lon="7.22282">
        <ele>864</ele>
        <time>2014-08-12T15:00:25Z</time>
      </trkpt>
      <trkpt lat="48.18495" lon="7.2227">
        <ele>865</ele>
        <time>2014-08-12T15:00:43Z</time>
      </trkpt>
      <trkpt lat="48.18488" lon="7.22276">
        <ele>863</ele>
        <time>2014-08-12T15:00:56Z</time>
      </trkpt>
      <trkpt lat="48.18484" lon="7.22281">
        <ele>862</ele>
        <time>2014-08-12T15:01:07Z</time>
      </trkpt>
      <trkpt lat="48.18482" lon="7.22283">
        <ele>862</ele>
        <time>2014-08-12T15:01:54Z</time>
      </trkpt>
      <trkpt lat="48.18476" lon="7.2229">
        <ele>861</ele>
        <time>2014-08-12T15:02:06Z</time>
      </trkpt>
      <trkpt lat="48.1847" lon="7.22313">
        <ele>860</ele>
        <time>2014-08-12T15:02:17Z</time>
      </trkpt>
      <trkpt lat="48.1847" lon="7.22321">
        <ele>860</ele>
        <time>2014-08-12T15:02:28Z</time>
      </trkpt>
      <trkpt lat="48.18473" lon="7.22334">
        <ele>857</ele>
        <time>2014-08-12T15:02:41Z</time>
      </trkpt>
      <trkpt lat="48.18474" lon="7.22358">
        <ele>855</ele>
        <time>2014-08-12T15:02:52Z</time>
      </trkpt>
      <trkpt lat="48.18478" lon="7.2238">
        <ele>854</ele>
        <time>2014-08-12T15:03:08Z</time>
      </trkpt>
      <trkpt lat="48.18479" lon="7.22401">
        <ele>855</ele>
        <time>2014-08-12T15:03:20Z</time>
      </trkpt>
      <trkpt lat="48.18479" lon="7.22416">
        <ele>855</ele>
        <time>2014-08-12T15:03:28Z</time>
      </trkpt>
      <trkpt lat="48.1848" lon="7.22426">
        <ele>851</ele>
        <time>2014-08-12T15:03:33Z</time>
      </trkpt>
      <trkpt lat="48.18483" lon="7.22441">
        <ele>849</ele>
        <time>2014-08-12T15:03:43Z</time>
      </trkpt>
      <trkpt lat="48.18482" lon="7.22472">
        <ele>847</ele>
        <time>2014-08-12T15:03:55Z</time>
      </trkpt>
      <trkpt lat="48.18484" lon="7.22485">
        <ele>848</ele>
        <time>2014-08-12T15:04:05Z</time>
      </trkpt>
      <trkpt lat="48.18486" lon="7.22504">
        <ele>847</ele>
        <time>2014-08-12T15:04:15Z</time>
      </trkpt>
      <trkpt lat="48.18485" lon="7.22519">
        <ele>843</ele>
        <time>2014-08-12T15:04:19Z</time>
      </trkpt>
      <trkpt lat="48.18487" lon="7.22528">
        <ele>841</ele>
        <time>2014-08-12T15:04:25Z</time>
      </trkpt>
      <trkpt lat="48.18495" lon="7.2254">
        <ele>841</ele>
        <time>2014-08-12T15:04:38Z</time>
      </trkpt>
      <trkpt lat="48.18496" lon="7.2255">
        <ele>841</ele>
        <time>2014-08-12T15:04:45Z</time>
      </trkpt>
      <trkpt lat="48.18501" lon="7.22579">
        <ele>853</ele>
        <time>2014-08-12T15:04:57Z</time>
      </trkpt>
      <trkpt lat="48.18507" lon="7.22591">
        <ele>854</ele>
        <time>2014-08-12T15:05:06Z</time>
      </trkpt>
      <trkpt lat="48.1851" lon="7.22611">
        <ele>858</ele>
        <time>2014-08-12T15:05:12Z</time>
      </trkpt>
      <trkpt lat="48.1851" lon="7.22615">
        <ele>858</ele>
        <time>2014-08-12T15:05:14Z</time>
      </trkpt>
      <trkpt lat="48.18513" lon="7.22634">
        <ele>857</ele>
        <time>2014-08-12T15:05:24Z</time>
      </trkpt>
      <trkpt lat="48.18514" lon="7.22645">
        <ele>855</ele>
        <time>2014-08-12T15:05:28Z</time>
      </trkpt>
      <trkpt lat="48.18518" lon="7.22661">
        <ele>852</ele>
        <time>2014-08-12T15:05:34Z</time>
      </trkpt>
      <trkpt lat="48.18526" lon="7.22671">
        <ele>848</ele>
        <time>2014-08-12T15:05:47Z</time>
      </trkpt>
      <trkpt lat="48.18527" lon="7.22677">
        <ele>848</ele>
        <time>2014-08-12T15:05:49Z</time>
      </trkpt>
      <trkpt lat="48.18531" lon="7.22696">
        <ele>849</ele>
        <time>2014-08-12T15:05:57Z</time>
      </trkpt>
      <trkpt lat="48.18533" lon="7.22708">
        <ele>848</ele>
        <time>2014-08-12T15:06:02Z</time>
      </trkpt>
      <trkpt lat="48.18535" lon="7.22717">
        <ele>848</ele>
        <time>2014-08-12T15:06:06Z</time>
      </trkpt>
      <trkpt lat="48.18538" lon="7.2273">
        <ele>847</ele>
        <time>2014-08-12T15:06:16Z</time>
      </trkpt>
      <trkpt lat="48.18544" lon="7.22741">
        <ele>848</ele>
        <time>2014-08-12T15:06:26Z</time>
      </trkpt>
      <trkpt lat="48.18546" lon="7.22751">
        <ele>836</ele>
        <time>2014-08-12T15:06:30Z</time>
      </trkpt>
      <trkpt lat="48.18556" lon="7.22769">
        <ele>837</ele>
        <time>2014-08-12T15:06:42Z</time>
      </trkpt>
      <trkpt lat="48.18561" lon="7.22781">
        <ele>836</ele>
        <time>2014-08-12T15:06:53Z</time>
      </trkpt>
      <trkpt lat="48.18567" lon="7.2278">
        <ele>837</ele>
        <time>2014-08-12T15:06:58Z</time>
      </trkpt>
      <trkpt lat="48.18569" lon="7.22785">
        <ele>837</ele>
        <time>2014-08-12T15:07:01Z</time>
      </trkpt>
      <trkpt lat="48.18576" lon="7.22802">
        <ele>834</ele>
        <time>2014-08-12T15:07:12Z</time>
      </trkpt>
      <trkpt lat="48.18583" lon="7.22817">
        <ele>833</ele>
        <time>2014-08-12T15:07:25Z</time>
      </trkpt>
      <trkpt lat="48.18586" lon="7.22825">
        <ele>843</ele>
        <time>2014-08-12T15:07:33Z</time>
      </trkpt>
      <trkpt lat="48.18589" lon="7.22833">
        <ele>840</ele>
        <time>2014-08-12T15:07:39Z</time>
      </trkpt>
      <trkpt lat="48.18595" lon="7.2285">
        <ele>840</ele>
        <time>2014-08-12T15:07:49Z</time>
      </trkpt>
      <trkpt lat="48.18601" lon="7.22866">
        <ele>841</ele>
        <time>2014-08-12T15:08:03Z</time>
      </trkpt>
      <trkpt lat="48.18608" lon="7.22878">
        <ele>841</ele>
        <time>2014-08-12T15:08:14Z</time>
      </trkpt>
      <trkpt lat="48.18612" lon="7.22892">
        <ele>840</ele>
        <time>2014-08-12T15:08:24Z</time>
      </trkpt>
      <trkpt lat="48.18619" lon="7.22901">
        <ele>841</ele>
        <time>2014-08-12T15:08:39Z</time>
      </trkpt>
      <trkpt lat="48.18621" lon="7.22911">
        <ele>841</ele>
        <time>2014-08-12T15:08:44Z</time>
      </trkpt>
      <trkpt lat="48.18623" lon="7.22922">
        <ele>832</ele>
        <time>2014-08-12T15:08:49Z</time>
      </trkpt>
      <trkpt lat="48.18625" lon="7.2294">
        <ele>831</ele>
        <time>2014-08-12T15:08:54Z</time>
      </trkpt>
      <trkpt lat="48.18626" lon="7.22952">
        <ele>831</ele>
        <time>2014-08-12T15:08:59Z</time>
      </trkpt>
      <trkpt lat="48.18629" lon="7.22963">
        <ele>831</ele>
        <time>2014-08-12T15:09:06Z</time>
      </trkpt>
      <trkpt lat="48.18634" lon="7.22974">
        <ele>831</ele>
        <time>2014-08-12T15:09:17Z</time>
      </trkpt>
      <trkpt lat="48.18647" lon="7.22986">
        <ele>834</ele>
        <time>2014-08-12T15:09:27Z</time>
      </trkpt>
      <trkpt lat="48.1865" lon="7.22994">
        <ele>835</ele>
        <time>2014-08-12T15:09:33Z</time>
      </trkpt>
      <trkpt lat="48.18657" lon="7.2301">
        <ele>832</ele>
        <time>2014-08-12T15:09:43Z</time>
      </trkpt>
      <trkpt lat="48.18658" lon="7.23014">
        <ele>830</ele>
        <time>2014-08-12T15:09:45Z</time>
      </trkpt>
      <trkpt lat="48.18661" lon="7.23038">
        <ele>824</ele>
        <time>2014-08-12T15:09:55Z</time>
      </trkpt>
      <trkpt lat="48.18662" lon="7.23044">
        <ele>824</ele>
        <time>2014-08-12T15:09:57Z</time>
      </trkpt>
      <trkpt lat="48.18667" lon="7.23055">
        <ele>846</ele>
        <time>2014-08-12T15:10:08Z</time>
      </trkpt>
      <trkpt lat="48.18667" lon="7.2306">
        <ele>844</ele>
        <time>2014-08-12T15:10:11Z</time>
      </trkpt>
      <trkpt lat="48.18668" lon="7.2307">
        <ele>840</ele>
        <time>2014-08-12T15:10:21Z</time>
      </trkpt>
      <trkpt lat="48.18668" lon="7.2309">
        <ele>832</ele>
        <time>2014-08-12T15:10:35Z</time>
      </trkpt>
      <trkpt lat="48.18673" lon="7.23102">
        <ele>837</ele>
        <time>2014-08-12T15:10:46Z</time>
      </trkpt>
      <trkpt lat="48.18676" lon="7.2312">
        <ele>839</ele>
        <time>2014-08-12T15:10:57Z</time>
      </trkpt>
      <trkpt lat="48.18678" lon="7.23141">
        <ele>837</ele>
        <time>2014-08-12T15:11:11Z</time>
      </trkpt>
      <trkpt lat="48.18678" lon="7.23155">
        <ele>832</ele>
        <time>2014-08-12T15:11:21Z</time>
      </trkpt>
      <trkpt lat="48.18679" lon="7.23162">
        <ele>830</ele>
        <time>2014-08-12T15:11:26Z</time>
      </trkpt>
      <trkpt lat="48.18679" lon="7.23166">
        <ele>829</ele>
        <time>2014-08-12T15:11:28Z</time>
      </trkpt>
      <trkpt lat="48.18679" lon="7.23171">
        <ele>827</ele>
        <time>2014-08-12T15:11:32Z</time>
      </trkpt>
      <trkpt lat="48.18683" lon="7.23185">
        <ele>832</ele>
        <time>2014-08-12T15:11:43Z</time>
      </trkpt>
      <trkpt lat="48.18682" lon="7.23204">
        <ele>833</ele>
        <time>2014-08-12T15:11:53Z</time>
      </trkpt>
      <trkpt lat="48.18681" lon="7.23213">
        <ele>832</ele>
        <time>2014-08-12T15:12:00Z</time>
      </trkpt>
      <trkpt lat="48.1868" lon="7.23226">
        <ele>830</ele>
        <time>2014-08-12T15:12:13Z</time>
      </trkpt>
      <trkpt lat="48.18682" lon="7.23248">
        <ele>826</ele>
        <time>2014-08-12T15:12:25Z</time>
      </trkpt>
      <trkpt lat="48.18684" lon="7.23252">
        <ele>825</ele>
        <time>2014-08-12T15:12:29Z</time>
      </trkpt>
      <trkpt lat="48.18685" lon="7.23266">
        <ele>827</ele>
        <time>2014-08-12T15:12:39Z</time>
      </trkpt>
      <trkpt lat="48.18686" lon="7.2327">
        <ele>828</ele>
        <time>2014-08-12T15:12:42Z</time>
      </trkpt>
      <trkpt lat="48.18684" lon="7.2329">
        <ele>829</ele>
        <time>2014-08-12T15:12:54Z</time>
      </trkpt>
      <trkpt lat="48.18681" lon="7.23298">
        <ele>828</ele>
        <time>2014-08-12T15:13:06Z</time>
      </trkpt>
      <trkpt lat="48.18681" lon="7.23304">
        <ele>827</ele>
        <time>2014-08-12T15:13:14Z</time>
      </trkpt>
      <trkpt lat="48.1868" lon="7.23319">
        <ele>824</ele>
        <time>2014-08-12T15:13:26Z</time>
      </trkpt>
      <trkpt lat="48.18677" lon="7.23337">
        <ele>818</ele>
        <time>2014-08-12T15:13:41Z</time>
      </trkpt>
      <trkpt lat="48.18678" lon="7.23351">
        <ele>822</ele>
        <time>2014-08-12T15:13:52Z</time>
      </trkpt>
      <trkpt lat="48.18676" lon="7.23359">
        <ele>823</ele>
        <time>2014-08-12T15:13:56Z</time>
      </trkpt>
      <trkpt lat="48.18676" lon="7.23375">
        <ele>824</ele>
        <time>2014-08-12T15:14:07Z</time>
      </trkpt>
      <trkpt lat="48.18676" lon="7.23397">
        <ele>820</ele>
        <time>2014-08-12T15:14:15Z</time>
      </trkpt>
      <trkpt lat="48.18674" lon="7.23409">
        <ele>815</ele>
        <time>2014-08-12T15:14:19Z</time>
      </trkpt>
      <trkpt lat="48.18671" lon="7.23419">
        <ele>810</ele>
        <time>2014-08-12T15:14:21Z</time>
      </trkpt>
      <trkpt lat="48.18668" lon="7.23444">
        <ele>818</ele>
        <time>2014-08-12T15:14:32Z</time>
      </trkpt>
      <trkpt lat="48.18664" lon="7.23464">
        <ele>789</ele>
        <time>2014-08-12T15:14:44Z</time>
      </trkpt>
      <trkpt lat="48.18661" lon="7.23486">
        <ele>792</ele>
        <time>2014-08-12T15:14:52Z</time>
      </trkpt>
      <trkpt lat="48.1866" lon="7.23493">
        <ele>794</ele>
        <time>2014-08-12T15:14:55Z</time>
      </trkpt>
      <trkpt lat="48.18659" lon="7.23498">
        <ele>795</ele>
        <time>2014-08-12T15:14:58Z</time>
      </trkpt>
      <trkpt lat="48.18658" lon="7.23507">
        <ele>791</ele>
        <time>2014-08-12T15:15:09Z</time>
      </trkpt>
      <trkpt lat="48.18656" lon="7.23522">
        <ele>786</ele>
        <time>2014-08-12T15:15:22Z</time>
      </trkpt>
      <trkpt lat="48.18655" lon="7.23535">
        <ele>783</ele>
        <time>2014-08-12T15:15:32Z</time>
      </trkpt>
      <trkpt lat="48.18652" lon="7.23554">
        <ele>783</ele>
        <time>2014-08-12T15:15:44Z</time>
      </trkpt>
      <trkpt lat="48.18653" lon="7.23568">
        <ele>785</ele>
        <time>2014-08-12T15:15:54Z</time>
      </trkpt>
      <trkpt lat="48.18652" lon="7.23585">
        <ele>786</ele>
        <time>2014-08-12T15:16:07Z</time>
      </trkpt>
      <trkpt lat="48.18652" lon="7.23591">
        <ele>785</ele>
        <time>2014-08-12T15:16:11Z</time>
      </trkpt>
      <trkpt lat="48.18651" lon="7.23596">
        <ele>783</ele>
        <time>2014-08-12T15:16:14Z</time>
      </trkpt>
      <trkpt lat="48.18652" lon="7.23613">
        <ele>780</ele>
        <time>2014-08-12T15:16:26Z</time>
      </trkpt>
      <trkpt lat="48.18652" lon="7.23617">
        <ele>779</ele>
        <time>2014-08-12T15:16:29Z</time>
      </trkpt>
      <trkpt lat="48.1865" lon="7.2363">
        <ele>778</ele>
        <time>2014-08-12T15:16:33Z</time>
      </trkpt>
      <trkpt lat="48.1865" lon="7.23645">
        <ele>779</ele>
        <time>2014-08-12T15:16:43Z</time>
      </trkpt>
      <trkpt lat="48.18648" lon="7.23673">
        <ele>779</ele>
        <time>2014-08-12T15:16:53Z</time>
      </trkpt>
      <trkpt lat="48.18648" lon="7.23679">
        <ele>778</ele>
        <time>2014-08-12T15:16:55Z</time>
      </trkpt>
      <trkpt lat="48.18647" lon="7.23688">
        <ele>776</ele>
        <time>2014-08-12T15:16:59Z</time>
      </trkpt>
      <trkpt lat="48.18645" lon="7.23697">
        <ele>774</ele>
        <time>2014-08-12T15:17:08Z</time>
      </trkpt>
      <trkpt lat="48.18644" lon="7.23706">
        <ele>773</ele>
        <time>2014-08-12T15:17:21Z</time>
      </trkpt>
      <trkpt lat="48.18633" lon="7.23732">
        <ele>771</ele>
        <time>2014-08-12T15:17:32Z</time>
      </trkpt>
      <trkpt lat="48.1863" lon="7.23741">
        <ele>770</ele>
        <time>2014-08-12T15:17:37Z</time>
      </trkpt>
      <trkpt lat="48.18629" lon="7.2375">
        <ele>769</ele>
        <time>2014-08-12T15:17:43Z</time>
      </trkpt>
      <trkpt lat="48.18629" lon="7.23766">
        <ele>769</ele>
        <time>2014-08-12T15:17:54Z</time>
      </trkpt>
      <trkpt lat="48.18624" lon="7.23794">
        <ele>768</ele>
        <time>2014-08-12T15:18:05Z</time>
      </trkpt>
      <trkpt lat="48.18617" lon="7.23821">
        <ele>766</ele>
        <time>2014-08-12T15:18:12Z</time>
      </trkpt>
      <trkpt lat="48.18615" lon="7.23831">
        <ele>765</ele>
        <time>2014-08-12T15:18:14Z</time>
      </trkpt>
      <trkpt lat="48.18613" lon="7.23837">
        <ele>769</ele>
        <time>2014-08-12T15:18:15Z</time>
      </trkpt>
      <trkpt lat="48.18612" lon="7.23841">
        <ele>769</ele>
        <time>2014-08-12T15:18:16Z</time>
      </trkpt>
      <trkpt lat="48.1861" lon="7.23847">
        <ele>769</ele>
        <time>2014-08-12T15:18:18Z</time>
      </trkpt>
      <trkpt lat="48.18608" lon="7.23851">
        <ele>769</ele>
        <time>2014-08-12T15:18:20Z</time>
      </trkpt>
      <trkpt lat="48.18606" lon="7.23854">
        <ele>769</ele>
        <time>2014-08-12T15:18:23Z</time>
      </trkpt>
      <trkpt lat="48.18603" lon="7.23857">
        <ele>769</ele>
        <time>2014-08-12T15:19:37Z</time>
      </trkpt>
      <trkpt lat="48.18601" lon="7.23866">
        <ele>770</ele>
        <time>2014-08-12T15:19:47Z</time>
      </trkpt>
      <trkpt lat="48.18604" lon="7.23874">
        <ele>772</ele>
        <time>2014-08-12T15:19:56Z</time>
      </trkpt>
      <trkpt lat="48.186" lon="7.23876">
        <ele>772</ele>
        <time>2014-08-12T15:21:02Z</time>
      </trkpt>
      <trkpt lat="48.18583" lon="7.23878">
        <ele>770</ele>
        <time>2014-08-12T15:21:14Z</time>
      </trkpt>
      <trkpt lat="48.18574" lon="7.2388">
        <ele>758</ele>
        <time>2014-08-12T15:21:25Z</time>
      </trkpt>
      <trkpt lat="48.18556" lon="7.23883">
        <ele>758</ele>
        <time>2014-08-12T15:21:37Z</time>
      </trkpt>
      <trkpt lat="48.1855" lon="7.23885">
        <ele>758</ele>
        <time>2014-08-12T15:21:49Z</time>
      </trkpt>
      <trkpt lat="48.18537" lon="7.23885">
        <ele>757</ele>
        <time>2014-08-12T15:22:02Z</time>
      </trkpt>
      <trkpt lat="48.18526" lon="7.23883">
        <ele>757</ele>
        <time>2014-08-12T15:22:12Z</time>
      </trkpt>
      <trkpt lat="48.18514" lon="7.2388">
        <ele>756</ele>
        <time>2014-08-12T15:22:23Z</time>
      </trkpt>
      <trkpt lat="48.18496" lon="7.23879">
        <ele>751</ele>
        <time>2014-08-12T15:22:33Z</time>
      </trkpt>
      <trkpt lat="48.18492" lon="7.23877">
        <ele>751</ele>
        <time>2014-08-12T15:22:35Z</time>
      </trkpt>
      <trkpt lat="48.18476" lon="7.23877">
        <ele>750</ele>
        <time>2014-08-12T15:22:45Z</time>
      </trkpt>
      <trkpt lat="48.1847" lon="7.23878">
        <ele>750</ele>
        <time>2014-08-12T15:22:49Z</time>
      </trkpt>
      <trkpt lat="48.18454" lon="7.23877">
        <ele>749</ele>
        <time>2014-08-12T15:23:00Z</time>
      </trkpt>
      <trkpt lat="48.1844" lon="7.2388">
        <ele>749</ele>
        <time>2014-08-12T15:23:11Z</time>
      </trkpt>
      <trkpt lat="48.18436" lon="7.2388">
        <ele>749</ele>
        <time>2014-08-12T15:23:13Z</time>
      </trkpt>
      <trkpt lat="48.18417" lon="7.23881">
        <ele>749</ele>
        <time>2014-08-12T15:23:27Z</time>
      </trkpt>
      <trkpt lat="48.18414" lon="7.23881">
        <ele>743</ele>
        <time>2014-08-12T15:23:29Z</time>
      </trkpt>
      <trkpt lat="48.18407" lon="7.23882">
        <ele>743</ele>
        <time>2014-08-12T15:23:42Z</time>
      </trkpt>
      <trkpt lat="48.18394" lon="7.23887">
        <ele>743</ele>
        <time>2014-08-12T15:23:52Z</time>
      </trkpt>
      <trkpt lat="48.18378" lon="7.23888">
        <ele>742</ele>
        <time>2014-08-12T15:24:03Z</time>
      </trkpt>
      <trkpt lat="48.18375" lon="7.23889">
        <ele>741</ele>
        <time>2014-08-12T15:24:05Z</time>
      </trkpt>
      <trkpt lat="48.18359" lon="7.23897">
        <ele>741</ele>
        <time>2014-08-12T15:24:15Z</time>
      </trkpt>
      <trkpt lat="48.18349" lon="7.23902">
        <ele>741</ele>
        <time>2014-08-12T15:24:21Z</time>
      </trkpt>
      <trkpt lat="48.1833" lon="7.23906">
        <ele>736</ele>
        <time>2014-08-12T15:24:31Z</time>
      </trkpt>
      <trkpt lat="48.1831" lon="7.23917">
        <ele>739</ele>
        <time>2014-08-12T15:24:43Z</time>
      </trkpt>
      <trkpt lat="48.18299" lon="7.23931">
        <ele>738</ele>
        <time>2014-08-12T15:24:53Z</time>
      </trkpt>
      <trkpt lat="48.18293" lon="7.23945">
        <ele>738</ele>
        <time>2014-08-12T15:25:03Z</time>
      </trkpt>
      <trkpt lat="48.18286" lon="7.23958">
        <ele>738</ele>
        <time>2014-08-12T15:25:13Z</time>
      </trkpt>
      <trkpt lat="48.18276" lon="7.23973">
        <ele>738</ele>
        <time>2014-08-12T15:25:22Z</time>
      </trkpt>
      <trkpt lat="48.18267" lon="7.23992">
        <ele>737</ele>
        <time>2014-08-12T15:25:33Z</time>
      </trkpt>
      <trkpt lat="48.18262" lon="7.24011">
        <ele>742</ele>
        <time>2014-08-12T15:25:44Z</time>
      </trkpt>
      <trkpt lat="48.18255" lon="7.24032">
        <ele>745</ele>
        <time>2014-08-12T15:25:54Z</time>
      </trkpt>
      <trkpt lat="48.18251" lon="7.24051">
        <ele>746</ele>
        <time>2014-08-12T15:26:06Z</time>
      </trkpt>
      <trkpt lat="48.18248" lon="7.24064">
        <ele>730</ele>
        <time>2014-08-12T15:26:14Z</time>
      </trkpt>
      <trkpt lat="48.18243" lon="7.24088">
        <ele>734</ele>
        <time>2014-08-12T15:26:25Z</time>
      </trkpt>
      <trkpt lat="48.18241" lon="7.24091">
        <ele>732</ele>
        <time>2014-08-12T15:26:28Z</time>
      </trkpt>
      <trkpt lat="48.18241" lon="7.241">
        <ele>730</ele>
        <time>2014-08-12T15:26:37Z</time>
      </trkpt>
      <trkpt lat="48.18242" lon="7.24111">
        <ele>728</ele>
        <time>2014-08-12T15:26:41Z</time>
      </trkpt>
      <trkpt lat="48.1824" lon="7.24127">
        <ele>726</ele>
        <time>2014-08-12T15:26:47Z</time>
      </trkpt>
      <trkpt lat="48.18238" lon="7.24149">
        <ele>728</ele>
        <time>2014-08-12T15:26:57Z</time>
      </trkpt>
      <trkpt lat="48.18239" lon="7.24175">
        <ele>729</ele>
        <time>2014-08-12T15:27:10Z</time>
      </trkpt>
      <trkpt lat="48.18243" lon="7.24198">
        <ele>725</ele>
        <time>2014-08-12T15:27:20Z</time>
      </trkpt>
      <trkpt lat="48.18246" lon="7.24217">
        <ele>725</ele>
        <time>2014-08-12T15:27:30Z</time>
      </trkpt>
      <trkpt lat="48.18247" lon="7.24222">
        <ele>725</ele>
        <time>2014-08-12T15:27:33Z</time>
      </trkpt>
      <trkpt lat="48.18253" lon="7.24243">
        <ele>742</ele>
        <time>2014-08-12T15:27:45Z</time>
      </trkpt>
      <trkpt lat="48.18261" lon="7.24253">
        <ele>745</ele>
        <time>2014-08-12T15:27:55Z</time>
      </trkpt>
      <trkpt lat="48.18263" lon="7.24255">
        <ele>747</ele>
        <time>2014-08-12T15:27:58Z</time>
      </trkpt>
      <trkpt lat="48.18267" lon="7.24284">
        <ele>753</ele>
        <time>2014-08-12T15:28:08Z</time>
      </trkpt>
      <trkpt lat="48.18267" lon="7.24291">
        <ele>753</ele>
        <time>2014-08-12T15:28:10Z</time>
      </trkpt>
      <trkpt lat="48.18267" lon="7.24298">
        <ele>753</ele>
        <time>2014-08-12T15:28:12Z</time>
      </trkpt>
      <trkpt lat="48.18266" lon="7.24326">
        <ele>747</ele>
        <time>2014-08-12T15:28:22Z</time>
      </trkpt>
      <trkpt lat="48.18263" lon="7.2434">
        <ele>746</ele>
        <time>2014-08-12T15:28:30Z</time>
      </trkpt>
      <trkpt lat="48.18258" lon="7.24358">
        <ele>750</ele>
        <time>2014-08-12T15:28:38Z</time>
      </trkpt>
      <trkpt lat="48.18258" lon="7.2438">
        <ele>753</ele>
        <time>2014-08-12T15:28:49Z</time>
      </trkpt>
      <trkpt lat="48.18256" lon="7.24399">
        <ele>750</ele>
        <time>2014-08-12T15:28:59Z</time>
      </trkpt>
      <trkpt lat="48.18249" lon="7.24415">
        <ele>739</ele>
        <time>2014-08-12T15:29:09Z</time>
      </trkpt>
      <trkpt lat="48.1824" lon="7.2443">
        <ele>737</ele>
        <time>2014-08-12T15:29:20Z</time>
      </trkpt>
      <trkpt lat="48.18231" lon="7.24446">
        <ele>735</ele>
        <time>2014-08-12T15:29:32Z</time>
      </trkpt>
      <trkpt lat="48.18221" lon="7.24459">
        <ele>734</ele>
        <time>2014-08-12T15:29:42Z</time>
      </trkpt>
      <trkpt lat="48.18216" lon="7.24467">
        <ele>734</ele>
        <time>2014-08-12T15:29:46Z</time>
      </trkpt>
      <trkpt lat="48.18206" lon="7.2448">
        <ele>733</ele>
        <time>2014-08-12T15:29:57Z</time>
      </trkpt>
      <trkpt lat="48.18203" lon="7.24495">
        <ele>733</ele>
        <time>2014-08-12T15:30:07Z</time>
      </trkpt>
      <trkpt lat="48.18198" lon="7.24512">
        <ele>740</ele>
        <time>2014-08-12T15:30:16Z</time>
      </trkpt>
      <trkpt lat="48.18195" lon="7.2453">
        <ele>741</ele>
        <time>2014-08-12T15:30:26Z</time>
      </trkpt>
      <trkpt lat="48.18192" lon="7.24538">
        <ele>741</ele>
        <time>2014-08-12T15:30:29Z</time>
      </trkpt>
      <trkpt lat="48.18187" lon="7.24554">
        <ele>741</ele>
        <time>2014-08-12T15:30:41Z</time>
      </trkpt>
      <trkpt lat="48.18184" lon="7.24564">
        <ele>740</ele>
        <time>2014-08-12T15:30:47Z</time>
      </trkpt>
      <trkpt lat="48.18175" lon="7.24581">
        <ele>737</ele>
        <time>2014-08-12T15:30:58Z</time>
      </trkpt>
      <trkpt lat="48.18163" lon="7.24593">
        <ele>732</ele>
        <time>2014-08-12T15:31:06Z</time>
      </trkpt>
      <trkpt lat="48.18153" lon="7.24608">
        <ele>731</ele>
        <time>2014-08-12T15:31:16Z</time>
      </trkpt>
      <trkpt lat="48.18148" lon="7.24613">
        <ele>731</ele>
        <time>2014-08-12T15:31:20Z</time>
      </trkpt>
      <trkpt lat="48.18139" lon="7.24627">
        <ele>732</ele>
        <time>2014-08-12T15:31:32Z</time>
      </trkpt>
      <trkpt lat="48.18133" lon="7.24633">
        <ele>731</ele>
        <time>2014-08-12T15:31:36Z</time>
      </trkpt>
      <trkpt lat="48.18116" lon="7.24643">
        <ele>730</ele>
        <time>2014-08-12T15:31:46Z</time>
      </trkpt>
      <trkpt lat="48.18106" lon="7.24654">
        <ele>730</ele>
        <time>2014-08-12T15:31:55Z</time>
      </trkpt>
      <trkpt lat="48.18096" lon="7.24664">
        <ele>729</ele>
        <time>2014-08-12T15:32:05Z</time>
      </trkpt>
      <trkpt lat="48.18078" lon="7.24678">
        <ele>730</ele>
        <time>2014-08-12T15:32:17Z</time>
      </trkpt>
      <trkpt lat="48.18074" lon="7.24682">
        <ele>730</ele>
        <time>2014-08-12T15:32:19Z</time>
      </trkpt>
      <trkpt lat="48.18062" lon="7.24698">
        <ele>731</ele>
        <time>2014-08-12T15:32:30Z</time>
      </trkpt>
      <trkpt lat="48.18048" lon="7.24713">
        <ele>732</ele>
        <time>2014-08-12T15:32:41Z</time>
      </trkpt>
      <trkpt lat="48.18038" lon="7.24723">
        <ele>732</ele>
        <time>2014-08-12T15:32:47Z</time>
      </trkpt>
      <trkpt lat="48.18033" lon="7.24728">
        <ele>732</ele>
        <time>2014-08-12T15:32:51Z</time>
      </trkpt>
      <trkpt lat="48.1802" lon="7.24738">
        <ele>731</ele>
        <time>2014-08-12T15:33:04Z</time>
      </trkpt>
      <trkpt lat="48.18004" lon="7.2475">
        <ele>732</ele>
        <time>2014-08-12T15:33:16Z</time>
      </trkpt>
      <trkpt lat="48.17995" lon="7.24756">
        <ele>731</ele>
        <time>2014-08-12T15:33:22Z</time>
      </trkpt>
      <trkpt lat="48.17984" lon="7.24771">
        <ele>729</ele>
        <time>2014-08-12T15:33:32Z</time>
      </trkpt>
      <trkpt lat="48.17972" lon="7.24788">
        <ele>728</ele>
        <time>2014-08-12T15:33:44Z</time>
      </trkpt>
      <trkpt lat="48.17967" lon="7.248">
        <ele>728</ele>
        <time>2014-08-12T15:33:50Z</time>
      </trkpt>
      <trkpt lat="48.17954" lon="7.24818">
        <ele>727</ele>
        <time>2014-08-12T15:34:00Z</time>
      </trkpt>
      <trkpt lat="48.17948" lon="7.24834">
        <ele>728</ele>
        <time>2014-08-12T15:34:10Z</time>
      </trkpt>
      <trkpt lat="48.17944" lon="7.24852">
        <ele>728</ele>
        <time>2014-08-12T15:34:21Z</time>
      </trkpt>
      <trkpt lat="48.17939" lon="7.24864">
        <ele>728</ele>
        <time>2014-08-12T15:34:27Z</time>
      </trkpt>
      <trkpt lat="48.17934" lon="7.24874">
        <ele>728</ele>
        <time>2014-08-12T15:34:38Z</time>
      </trkpt>
      <trkpt lat="48.17928" lon="7.24896">
        <ele>727</ele>
        <time>2014-08-12T15:34:49Z</time>
      </trkpt>
      <trkpt lat="48.17923" lon="7.24918">
        <ele>725</ele>
        <time>2014-08-12T15:34:59Z</time>
      </trkpt>
      <trkpt lat="48.17917" lon="7.24941">
        <ele>718</ele>
        <time>2014-08-12T15:35:09Z</time>
      </trkpt>
      <trkpt lat="48.17914" lon="7.24956">
        <ele>717</ele>
        <time>2014-08-12T15:35:17Z</time>
      </trkpt>
      <trkpt lat="48.17914" lon="7.24961">
        <ele>717</ele>
        <time>2014-08-12T15:35:19Z</time>
      </trkpt>
      <trkpt lat="48.17913" lon="7.24967">
        <ele>717</ele>
        <time>2014-08-12T15:35:21Z</time>
      </trkpt>
      <trkpt lat="48.17912" lon="7.24979">
        <ele>718</ele>
        <time>2014-08-12T15:35:25Z</time>
      </trkpt>
      <trkpt lat="48.1791" lon="7.24997">
        <ele>719</ele>
        <time>2014-08-12T15:35:31Z</time>
      </trkpt>
      <trkpt lat="48.17908" lon="7.25019">
        <ele>717</ele>
        <time>2014-08-12T15:35:39Z</time>
      </trkpt>
      <trkpt lat="48.17903" lon="7.25047">
        <ele>716</ele>
        <time>2014-08-12T15:35:49Z</time>
      </trkpt>
      <trkpt lat="48.17902" lon="7.25051">
        <ele>716</ele>
        <time>2014-08-12T15:35:51Z</time>
      </trkpt>
      <trkpt lat="48.17902" lon="7.25061">
        <ele>716</ele>
        <time>2014-08-12T15:36:01Z</time>
      </trkpt>
      <trkpt lat="48.179" lon="7.25074">
        <ele>717</ele>
        <time>2014-08-12T15:36:07Z</time>
      </trkpt>
      <trkpt lat="48.179" lon="7.25078">
        <ele>717</ele>
        <time>2014-08-12T15:36:12Z</time>
      </trkpt>
      <trkpt lat="48.17902" lon="7.25093">
        <ele>715</ele>
        <time>2014-08-12T15:36:22Z</time>
      </trkpt>
      <trkpt lat="48.17904" lon="7.25116">
        <ele>713</ele>
        <time>2014-08-12T15:36:34Z</time>
      </trkpt>
      <trkpt lat="48.17905" lon="7.25129">
        <ele>713</ele>
        <time>2014-08-12T15:36:44Z</time>
      </trkpt>
      <trkpt lat="48.17897" lon="7.25133">
        <ele>712</ele>
        <time>2014-08-12T15:36:54Z</time>
      </trkpt>
      <trkpt lat="48.17893" lon="7.25132">
        <ele>712</ele>
        <time>2014-08-12T15:36:57Z</time>
      </trkpt>
      <trkpt lat="48.17881" lon="7.2513">
        <ele>712</ele>
        <time>2014-08-12T15:37:08Z</time>
      </trkpt>
      <trkpt lat="48.17878" lon="7.2514">
        <ele>711</ele>
        <time>2014-08-12T15:37:18Z</time>
      </trkpt>
      <trkpt lat="48.17878" lon="7.25151">
        <ele>711</ele>
        <time>2014-08-12T15:37:28Z</time>
      </trkpt>
      <trkpt lat="48.17879" lon="7.25166">
        <ele>711</ele>
        <time>2014-08-12T15:37:41Z</time>
      </trkpt>
      <trkpt lat="48.1788" lon="7.2519">
        <ele>704</ele>
        <time>2014-08-12T15:37:52Z</time>
      </trkpt>
      <trkpt lat="48.17882" lon="7.25201">
        <ele>703</ele>
        <time>2014-08-12T15:37:59Z</time>
      </trkpt>
      <trkpt lat="48.17877" lon="7.25233">
        <ele>700</ele>
        <time>2014-08-12T15:38:09Z</time>
      </trkpt>
      <trkpt lat="48.17871" lon="7.25257">
        <ele>690</ele>
        <time>2014-08-12T15:38:17Z</time>
      </trkpt>
      <trkpt lat="48.17869" lon="7.25263">
        <ele>689</ele>
        <time>2014-08-12T15:38:19Z</time>
      </trkpt>
      <trkpt lat="48.17863" lon="7.25282">
        <ele>687</ele>
        <time>2014-08-12T15:38:29Z</time>
      </trkpt>
      <trkpt lat="48.17857" lon="7.25299">
        <ele>685</ele>
        <time>2014-08-12T15:38:39Z</time>
      </trkpt>
      <trkpt lat="48.17857" lon="7.25312">
        <ele>683</ele>
        <time>2014-08-12T15:38:50Z</time>
      </trkpt>
      <trkpt lat="48.17857" lon="7.25316">
        <ele>682</ele>
        <time>2014-08-12T15:38:52Z</time>
      </trkpt>
      <trkpt lat="48.1786" lon="7.2533">
        <ele>681</ele>
        <time>2014-08-12T15:39:02Z</time>
      </trkpt>
      <trkpt lat="48.17859" lon="7.25335">
        <ele>672</ele>
        <time>2014-08-12T15:39:05Z</time>
      </trkpt>
      <trkpt lat="48.17856" lon="7.25343">
        <ele>672</ele>
        <time>2014-08-12T15:39:12Z</time>
      </trkpt>
      <trkpt lat="48.17848" lon="7.25369">
        <ele>670</ele>
        <time>2014-08-12T15:39:23Z</time>
      </trkpt>
      <trkpt lat="48.17839" lon="7.25403">
        <ele>662</ele>
        <time>2014-08-12T15:39:37Z</time>
      </trkpt>
      <trkpt lat="48.17838" lon="7.25409">
        <ele>659</ele>
        <time>2014-08-12T15:39:40Z</time>
      </trkpt>
      <trkpt lat="48.17845" lon="7.25424">
        <ele>658</ele>
        <time>2014-08-12T15:39:52Z</time>
      </trkpt>
      <trkpt lat="48.17855" lon="7.25437">
        <ele>660</ele>
        <time>2014-08-12T15:40:06Z</time>
      </trkpt>
      <trkpt lat="48.17855" lon="7.25451">
        <ele>661</ele>
        <time>2014-08-12T15:40:16Z</time>
      </trkpt>
      <trkpt lat="48.17855" lon="7.25455">
        <ele>661</ele>
        <time>2014-08-12T15:40:18Z</time>
      </trkpt>
      <trkpt lat="48.17857" lon="7.2546">
        <ele>661</ele>
        <time>2014-08-12T15:40:21Z</time>
      </trkpt>
      <trkpt lat="48.17857" lon="7.25478">
        <ele>659</ele>
        <time>2014-08-12T15:40:32Z</time>
      </trkpt>
      <trkpt lat="48.17855" lon="7.2549">
        <ele>657</ele>
        <time>2014-08-12T15:40:43Z</time>
      </trkpt>
      <trkpt lat="48.17853" lon="7.25504">
        <ele>654</ele>
        <time>2014-08-12T15:40:55Z</time>
      </trkpt>
      <trkpt lat="48.17856" lon="7.25521">
        <ele>656</ele>
        <time>2014-08-12T15:41:08Z</time>
      </trkpt>
      <trkpt lat="48.17859" lon="7.25527">
        <ele>657</ele>
        <time>2014-08-12T15:41:18Z</time>
      </trkpt>
      <trkpt lat="48.17857" lon="7.25531">
        <ele>657</ele>
        <time>2014-08-12T15:41:21Z</time>
      </trkpt>
      <trkpt lat="48.17855" lon="7.25534">
        <ele>656</ele>
        <time>2014-08-12T15:41:33Z</time>
      </trkpt>
    </trkseg>
  </trk>
</gpx>